HVN772 YSSY-VVTS
Flight info
| Callsign | HVN772 |
|---|---|
| Flight time | 8h 21m |
| Altitude | 38000 |
| Route | KADOM A576 POLEV T25 ANZAC/N0488F400 T25 TNK J30 TN J251 DN M768 AKMON/K0900F400 M768 ELSAS ELSAS5G |
| Aircraft | A359/H-SDE2E3GHIJ3J4J5LM1ORWXY/LB1D1 |
Departure
| Time | 2026-05-04 22:24 |
|---|---|
| Airport | Sydney Kingsford Smith International Airport (YSSY) |
Arrival
| Time | 2026-05-05 06:46 |
|---|---|
| Airport | Tan Son Nhat International Airport (VVTS) |
| Time | Latitude | Longitude | Altitude | Speed | Heading |
|---|---|---|---|---|---|
| 2026-05-04 22:23 | -33.92962 | 151.17092 | 37 ft | 12 kts | 92° |
| 2026-05-04 22:23 | -33.93012 | 151.17169 | 37 ft | 13 kts | 152° |
| 2026-05-04 22:23 | -33.93184 | 151.17223 | 37 ft | 49 kts | 167° |
| 2026-05-04 22:23 | -33.93740 | 151.17366 | 32 ft | 112 kts | 167° |
| 2026-05-04 22:24 | -33.94682 | 151.17609 | 37 ft | 163 kts | 168° |
| 2026-05-04 22:24 | -33.95842 | 151.17904 | 535 ft | 169 kts | 171° |
| 2026-05-04 22:24 | -33.96985 | 151.18096 | 1221 ft | 163 kts | 188° |
| 2026-05-04 22:24 | -33.98168 | 151.17968 | 1663 ft | 181 kts | 193° |
| 2026-05-04 22:25 | -33.99491 | 151.17794 | 1988 ft | 200 kts | 191° |
| 2026-05-04 22:25 | -34.00943 | 151.17647 | 2377 ft | 220 kts | 190° |
| 2026-05-04 22:25 | -34.02550 | 151.17579 | 2743 ft | 242 kts | 180° |
| 2026-05-04 22:25 | -34.04220 | 151.17977 | 3492 ft | 248 kts | 169° |
| 2026-05-04 22:26 | -34.05910 | 151.18540 | 4167 ft | 254 kts | 168° |
| 2026-05-04 22:26 | -34.07638 | 151.19125 | 4780 ft | 261 kts | 167° |
| 2026-05-04 22:26 | -34.09396 | 151.19720 | 5418 ft | 267 kts | 167° |
| 2026-05-04 22:26 | -34.11206 | 151.20335 | 6051 ft | 273 kts | 167° |
| 2026-05-04 22:27 | -34.13063 | 151.20965 | 6712 ft | 279 kts | 167° |
| 2026-05-04 22:27 | -34.14558 | 151.21463 | 7398 ft | 277 kts | 168° |
| 2026-05-04 22:27 | -34.16080 | 151.21970 | 7997 ft | 281 kts | 168° |
| 2026-05-04 22:27 | -34.17939 | 151.22425 | 8572 ft | 285 kts | 179° |
| 2026-05-04 22:28 | -34.19887 | 151.22190 | 9269 ft | 282 kts | 202° |
| 2026-05-04 22:28 | -34.21602 | 151.21105 | 9970 ft | 278 kts | 224° |
| 2026-05-04 22:28 | -34.22973 | 151.19452 | 10530 ft | 284 kts | 233° |
| 2026-05-04 22:28 | -34.24251 | 151.17560 | 10933 ft | 295 kts | 239° |
| 2026-05-04 22:29 | -34.25155 | 151.15349 | 11581 ft | 293 kts | 257° |
| 2026-05-04 22:29 | -34.25382 | 151.12933 | 12324 ft | 290 kts | 276° |
| 2026-05-04 22:29 | -34.25023 | 151.10573 | 13106 ft | 289 kts | 285° |
| 2026-05-04 22:29 | -34.24447 | 151.08285 | 13863 ft | 290 kts | 292° |
| 2026-05-04 22:30 | -34.23407 | 151.06205 | 14547 ft | 291 kts | 309° |
| 2026-05-04 22:30 | -34.21831 | 151.04643 | 15195 ft | 298 kts | 327° |
| 2026-05-04 22:30 | -34.19849 | 151.03762 | 15746 ft | 311 kts | 342° |
| 2026-05-04 22:30 | -34.17701 | 151.03262 | 16299 ft | 317 kts | 344° |
| 2026-05-04 22:31 | -34.15526 | 151.02792 | 17005 ft | 317 kts | 344° |
| 2026-05-04 22:31 | -34.13352 | 151.02309 | 17685 ft | 318 kts | 343° |
| 2026-05-04 22:31 | -34.11166 | 151.01813 | 18323 ft | 321 kts | 343° |
| 2026-05-04 22:31 | -34.09002 | 151.01197 | 18894 ft | 320 kts | 338° |
| 2026-05-04 22:32 | -34.06854 | 151.00443 | 19431 ft | 323 kts | 338° |
| 2026-05-04 22:32 | -34.04685 | 150.99688 | 19982 ft | 326 kts | 338° |
| 2026-05-04 22:32 | -34.02519 | 150.98877 | 20555 ft | 326 kts | 334° |
| 2026-05-04 22:32 | -34.00491 | 150.97689 | 21102 ft | 323 kts | 324° |
| 2026-05-04 22:33 | -33.98718 | 150.96032 | 21625 ft | 324 kts | 314° |
| 2026-05-04 22:33 | -33.97249 | 150.93941 | 21911 ft | 332 kts | 303° |
| 2026-05-04 22:33 | -33.96111 | 150.91475 | 22164 ft | 343 kts | 296° |
| 2026-05-04 22:33 | -33.95065 | 150.88845 | 22452 ft | 353 kts | 296° |
| 2026-05-04 22:34 | -33.93988 | 150.86140 | 22736 ft | 363 kts | 296° |
| 2026-05-04 22:34 | -33.93000 | 150.83681 | 22984 ft | 372 kts | 296° |
| 2026-05-04 22:34 | -33.91872 | 150.80884 | 23302 ft | 379 kts | 296° |
| 2026-05-04 22:34 | -33.90706 | 150.78006 | 23797 ft | 384 kts | 296° |
| 2026-05-04 22:35 | -33.89528 | 150.75097 | 24218 ft | 388 kts | 296° |
| 2026-05-04 22:35 | -33.88339 | 150.72170 | 24577 ft | 393 kts | 296° |
| 2026-05-04 22:35 | -33.87137 | 150.69212 | 25031 ft | 396 kts | 296° |
| 2026-05-04 22:35 | -33.85916 | 150.66212 | 25530 ft | 397 kts | 296° |
| 2026-05-04 22:36 | -33.84698 | 150.63220 | 26006 ft | 399 kts | 296° |
| 2026-05-04 22:36 | -33.83474 | 150.60217 | 26464 ft | 401 kts | 296° |
| 2026-05-04 22:36 | -33.82245 | 150.57205 | 26913 ft | 403 kts | 296° |
| 2026-05-04 22:36 | -33.81004 | 150.54169 | 27367 ft | 405 kts | 296° |
| 2026-05-04 22:37 | -33.79760 | 150.51125 | 27838 ft | 406 kts | 296° |
| 2026-05-04 22:37 | -33.78507 | 150.48062 | 28302 ft | 408 kts | 296° |
| 2026-05-04 22:37 | -33.77250 | 150.44995 | 28706 ft | 412 kts | 296° |
| 2026-05-04 22:37 | -33.75978 | 150.41894 | 28990 ft | 417 kts | 296° |
| 2026-05-04 22:38 | -33.74691 | 150.38755 | 29443 ft | 418 kts | 296° |
| 2026-05-04 22:38 | -33.73403 | 150.35619 | 29886 ft | 419 kts | 296° |
| 2026-05-04 22:38 | -33.72117 | 150.32485 | 30287 ft | 420 kts | 296° |
| 2026-05-04 22:38 | -33.70924 | 150.29259 | 30548 ft | 423 kts | 291° |
| 2026-05-04 22:39 | -33.69933 | 150.25923 | 30875 ft | 426 kts | 290° |
| 2026-05-04 22:39 | -33.68998 | 150.22548 | 31204 ft | 427 kts | 289° |
| 2026-05-04 22:39 | -33.68099 | 150.19191 | 31530 ft | 428 kts | 289° |
| 2026-05-04 22:39 | -33.67192 | 150.15782 | 31843 ft | 428 kts | 289° |
| 2026-05-04 22:40 | -33.66267 | 150.12322 | 31997 ft | 432 kts | 289° |
| 2026-05-04 22:40 | -33.65357 | 150.08942 | 32375 ft | 430 kts | 289° |
| 2026-05-04 22:40 | -33.64424 | 150.05500 | 32877 ft | 426 kts | 289° |
| 2026-05-04 22:40 | -33.63516 | 150.02173 | 33333 ft | 423 kts | 289° |
| 2026-05-04 22:41 | -33.62600 | 149.98828 | 33763 ft | 421 kts | 289° |
| 2026-05-04 22:41 | -33.61690 | 149.95513 | 34189 ft | 418 kts | 289° |
| 2026-05-04 22:41 | -33.60782 | 149.92205 | 34531 ft | 417 kts | 289° |
| 2026-05-04 22:41 | -33.59871 | 149.88895 | 34798 ft | 417 kts | 289° |
| 2026-05-04 22:42 | -33.58962 | 149.85589 | 34966 ft | 418 kts | 289° |
| 2026-05-04 22:42 | -33.58052 | 149.82281 | 35172 ft | 419 kts | 289° |
| 2026-05-04 22:42 | -33.57138 | 149.78966 | 35468 ft | 418 kts | 289° |
| 2026-05-04 22:42 | -33.56227 | 149.75662 | 35734 ft | 417 kts | 289° |
| 2026-05-04 22:43 | -33.55315 | 149.72363 | 35966 ft | 416 kts | 289° |
| 2026-05-04 22:43 | -33.54405 | 149.69073 | 36195 ft | 416 kts | 289° |
| 2026-05-04 22:43 | -33.53495 | 149.65787 | 36421 ft | 416 kts | 289° |
| 2026-05-04 22:43 | -33.52585 | 149.62500 | 36649 ft | 415 kts | 289° |
| 2026-05-04 22:44 | -33.51669 | 149.59204 | 36867 ft | 415 kts | 289° |
| 2026-05-04 22:44 | -33.50759 | 149.55930 | 37019 ft | 416 kts | 289° |
| 2026-05-04 22:44 | -33.49844 | 149.52643 | 37209 ft | 416 kts | 289° |
| 2026-05-04 22:44 | -33.48930 | 149.49365 | 37414 ft | 415 kts | 289° |
| 2026-05-04 22:45 | -33.48012 | 149.46081 | 37597 ft | 415 kts | 289° |
| 2026-05-04 22:45 | -33.46184 | 149.39536 | 37943 ft | 414 kts | 289° |
| 2026-05-04 22:45 | -33.45271 | 149.36273 | 38075 ft | 414 kts | 289° |
| 2026-05-04 22:46 | -33.44353 | 149.32998 | 38207 ft | 415 kts | 289° |
| 2026-05-04 22:46 | -33.43432 | 149.29716 | 38219 ft | 418 kts | 289° |
| 2026-05-04 22:46 | -33.41576 | 149.23109 | 38219 ft | 419 kts | 289° |
| 2026-05-04 22:47 | -33.39718 | 149.16511 | 38220 ft | 418 kts | 289° |
| 2026-05-04 22:47 | -33.37859 | 149.09925 | 38220 ft | 418 kts | 289° |
| 2026-05-04 22:48 | -33.35993 | 149.03334 | 38216 ft | 418 kts | 289° |
| 2026-05-04 22:48 | -33.34124 | 148.96747 | 38235 ft | 419 kts | 289° |
| 2026-05-04 22:49 | -33.32243 | 148.90144 | 38221 ft | 419 kts | 289° |
| 2026-05-04 22:49 | -33.30364 | 148.83547 | 38222 ft | 419 kts | 289° |
| 2026-05-04 22:50 | -33.28482 | 148.76952 | 38221 ft | 419 kts | 289° |
| 2026-05-04 22:50 | -33.26610 | 148.70409 | 38222 ft | 420 kts | 290° |
| 2026-05-04 22:51 | -33.24702 | 148.63755 | 38221 ft | 421 kts | 290° |
| 2026-05-04 22:51 | -33.22810 | 148.57181 | 38225 ft | 421 kts | 290° |
| 2026-05-04 22:52 | -33.20907 | 148.50571 | 38226 ft | 421 kts | 290° |
| 2026-05-04 22:52 | -33.18998 | 148.43958 | 38224 ft | 421 kts | 290° |
| 2026-05-04 22:53 | -33.17082 | 148.37345 | 38225 ft | 422 kts | 290° |
| 2026-05-04 22:53 | -33.15164 | 148.30742 | 38224 ft | 422 kts | 290° |
| 2026-05-04 22:54 | -33.13096 | 148.24192 | 38225 ft | 421 kts | 296° |
| 2026-05-04 22:54 | -33.10142 | 148.18158 | 38226 ft | 422 kts | 301° |
| 2026-05-04 22:55 | -33.06955 | 148.12264 | 38226 ft | 423 kts | 302° |
| 2026-05-04 22:55 | -33.03743 | 148.06397 | 38224 ft | 421 kts | 302° |
| 2026-05-04 22:56 | -33.00557 | 148.00554 | 38232 ft | 420 kts | 302° |
| 2026-05-04 22:56 | -32.97380 | 147.94721 | 38233 ft | 420 kts | 302° |
| 2026-05-04 22:57 | -32.94200 | 147.88885 | 38234 ft | 420 kts | 302° |
| 2026-05-04 22:57 | -32.91010 | 147.83041 | 38231 ft | 421 kts | 302° |
| 2026-05-04 22:58 | -32.87813 | 147.77202 | 38225 ft | 421 kts | 302° |
| 2026-05-04 22:58 | -32.84642 | 147.71413 | 38229 ft | 421 kts | 302° |
| 2026-05-04 22:59 | -32.81447 | 147.65584 | 38228 ft | 421 kts | 302° |
| 2026-05-04 22:59 | -32.78240 | 147.59747 | 38226 ft | 422 kts | 302° |
| 2026-05-04 23:00 | -32.75030 | 147.53911 | 38231 ft | 422 kts | 302° |
| 2026-05-04 23:00 | -32.71811 | 147.48072 | 38231 ft | 423 kts | 302° |
| 2026-05-04 23:01 | -32.68586 | 147.42231 | 38231 ft | 423 kts | 302° |
| 2026-05-04 23:01 | -32.65361 | 147.36397 | 38233 ft | 423 kts | 302° |
| 2026-05-04 23:02 | -32.62129 | 147.30563 | 38233 ft | 423 kts | 302° |
| 2026-05-04 23:02 | -32.58893 | 147.24729 | 38237 ft | 423 kts | 302° |
| 2026-05-04 23:03 | -32.55664 | 147.18917 | 38227 ft | 422 kts | 302° |
| 2026-05-04 23:03 | -32.52442 | 147.13124 | 38233 ft | 420 kts | 302° |
| 2026-05-04 23:04 | -32.49220 | 147.07342 | 38233 ft | 421 kts | 302° |
| 2026-05-04 23:04 | -32.45984 | 147.01544 | 38233 ft | 422 kts | 302° |
| 2026-05-04 23:05 | -32.43293 | 146.96731 | 38235 ft | 422 kts | 302° |
| 2026-05-04 23:05 | -32.40052 | 146.90941 | 38236 ft | 422 kts | 302° |
| 2026-05-04 23:06 | -32.36809 | 146.85155 | 38233 ft | 422 kts | 302° |
| 2026-05-04 23:06 | -32.33555 | 146.79360 | 38233 ft | 423 kts | 302° |
| 2026-05-04 23:07 | -32.30301 | 146.73575 | 38236 ft | 423 kts | 302° |
| 2026-05-04 23:07 | -32.27041 | 146.67784 | 38238 ft | 423 kts | 302° |
| 2026-05-04 23:08 | -32.23779 | 146.61999 | 38238 ft | 423 kts | 302° |
| 2026-05-04 23:08 | -32.20515 | 146.56219 | 38238 ft | 423 kts | 302° |
| 2026-05-04 23:09 | -32.17247 | 146.50440 | 38235 ft | 423 kts | 302° |
| 2026-05-04 23:09 | -32.13975 | 146.44664 | 38236 ft | 423 kts | 302° |
| 2026-05-04 23:10 | -32.10703 | 146.38900 | 38237 ft | 423 kts | 302° |
| 2026-05-04 23:10 | -32.07430 | 146.33139 | 38230 ft | 422 kts | 302° |
| 2026-05-04 23:11 | -32.04164 | 146.27397 | 38240 ft | 422 kts | 303° |
| 2026-05-04 23:11 | -32.00908 | 146.21683 | 38238 ft | 423 kts | 303° |
| 2026-05-04 23:12 | -31.97623 | 146.15931 | 38233 ft | 424 kts | 303° |
| 2026-05-04 23:12 | -31.94329 | 146.10168 | 38243 ft | 423 kts | 303° |
| 2026-05-04 23:13 | -31.91039 | 146.04421 | 38242 ft | 424 kts | 303° |
| 2026-05-04 23:13 | -31.87732 | 145.98657 | 38241 ft | 425 kts | 303° |
| 2026-05-04 23:14 | -31.84422 | 145.92897 | 38230 ft | 425 kts | 303° |
| 2026-05-04 23:14 | -31.81107 | 145.87132 | 38243 ft | 425 kts | 303° |
| 2026-05-04 23:15 | -31.77792 | 145.81375 | 38236 ft | 425 kts | 303° |
| 2026-05-04 23:15 | -31.74474 | 145.75620 | 38229 ft | 425 kts | 303° |
| 2026-05-04 23:16 | -31.71147 | 145.69861 | 38239 ft | 427 kts | 303° |
| 2026-05-04 23:16 | -31.67808 | 145.64095 | 38237 ft | 427 kts | 303° |
| 2026-05-04 23:17 | -31.64472 | 145.58335 | 38239 ft | 427 kts | 303° |
| 2026-05-04 23:17 | -31.61130 | 145.52576 | 38224 ft | 426 kts | 303° |
| 2026-05-04 23:18 | -31.57792 | 145.46835 | 38243 ft | 426 kts | 303° |
| 2026-05-04 23:18 | -31.54454 | 145.41100 | 38244 ft | 426 kts | 304° |
| 2026-05-04 23:19 | -31.51116 | 145.35372 | 38244 ft | 426 kts | 304° |
| 2026-05-04 23:19 | -31.47766 | 145.29633 | 38244 ft | 426 kts | 304° |
| 2026-05-04 23:20 | -31.44416 | 145.23908 | 38244 ft | 427 kts | 304° |
| 2026-05-04 23:20 | -31.41059 | 145.18174 | 38241 ft | 428 kts | 304° |
| 2026-05-04 23:21 | -31.37710 | 145.12460 | 38245 ft | 428 kts | 304° |
| 2026-05-04 23:21 | -31.34342 | 145.06723 | 38246 ft | 428 kts | 304° |
| 2026-05-04 23:22 | -31.30968 | 145.00984 | 38242 ft | 428 kts | 304° |
| 2026-05-04 23:22 | -31.27586 | 144.95243 | 38242 ft | 429 kts | 304° |
| 2026-05-04 23:23 | -31.24197 | 144.89499 | 38244 ft | 430 kts | 304° |
| 2026-05-04 23:23 | -31.20803 | 144.83755 | 38245 ft | 430 kts | 304° |
| 2026-05-04 23:24 | -31.17403 | 144.78005 | 38242 ft | 430 kts | 304° |
| 2026-05-04 23:24 | -31.14004 | 144.72269 | 38250 ft | 430 kts | 304° |
| 2026-05-04 23:25 | -31.10598 | 144.66527 | 38245 ft | 429 kts | 304° |
| 2026-05-04 23:25 | -31.07204 | 144.60814 | 38250 ft | 428 kts | 304° |
| 2026-05-04 23:26 | -31.03808 | 144.55108 | 38254 ft | 428 kts | 304° |
| 2026-05-04 23:26 | -31.00436 | 144.49450 | 38249 ft | 428 kts | 304° |
| 2026-05-04 23:27 | -30.97027 | 144.43735 | 38251 ft | 430 kts | 304° |
| 2026-05-04 23:27 | -30.93607 | 144.38014 | 38253 ft | 431 kts | 304° |
| 2026-05-04 23:28 | -30.90186 | 144.32299 | 38256 ft | 431 kts | 304° |
| 2026-05-04 23:28 | -30.86754 | 144.26574 | 38256 ft | 430 kts | 304° |
| 2026-05-04 23:29 | -30.83326 | 144.20864 | 38254 ft | 431 kts | 304° |
| 2026-05-04 23:29 | -30.79880 | 144.15133 | 38260 ft | 433 kts | 304° |
| 2026-05-04 23:30 | -30.76434 | 144.09406 | 38256 ft | 432 kts | 304° |
| 2026-05-04 23:30 | -30.72982 | 144.03675 | 38258 ft | 432 kts | 304° |
| 2026-05-04 23:31 | -30.69529 | 143.97958 | 38256 ft | 432 kts | 304° |
| 2026-05-04 23:31 | -30.66071 | 143.92236 | 38255 ft | 432 kts | 304° |
| 2026-05-04 23:32 | -30.62612 | 143.86526 | 38243 ft | 432 kts | 304° |
| 2026-05-04 23:32 | -30.59164 | 143.80837 | 38266 ft | 430 kts | 304° |
| 2026-05-04 23:33 | -30.55723 | 143.75172 | 38276 ft | 429 kts | 304° |
| 2026-05-04 23:33 | -30.52273 | 143.69500 | 38258 ft | 431 kts | 304° |
| 2026-05-04 23:34 | -30.48806 | 143.63808 | 38258 ft | 433 kts | 304° |
| 2026-05-04 23:34 | -30.45332 | 143.58114 | 38258 ft | 433 kts | 304° |
| 2026-05-04 23:35 | -30.41854 | 143.52418 | 38264 ft | 432 kts | 304° |
| 2026-05-04 23:35 | -30.38379 | 143.46734 | 38262 ft | 433 kts | 304° |
| 2026-05-04 23:36 | -30.34890 | 143.41037 | 38260 ft | 434 kts | 304° |
| 2026-05-04 23:36 | -30.31420 | 143.35379 | 38261 ft | 434 kts | 305° |
| 2026-05-04 23:37 | -30.27901 | 143.29649 | 38258 ft | 434 kts | 305° |
| 2026-05-04 23:37 | -30.24425 | 143.23995 | 38259 ft | 434 kts | 305° |
| 2026-05-04 23:38 | -30.20920 | 143.18303 | 38257 ft | 435 kts | 305° |
| 2026-05-04 23:38 | -30.17407 | 143.12610 | 38257 ft | 435 kts | 305° |
| 2026-05-04 23:39 | -30.13883 | 143.06907 | 38261 ft | 436 kts | 305° |
| 2026-05-04 23:39 | -30.10363 | 143.01222 | 38258 ft | 435 kts | 305° |
| 2026-05-04 23:40 | -30.06832 | 142.95525 | 38274 ft | 436 kts | 305° |
| 2026-05-04 23:40 | -30.03291 | 142.89817 | 38253 ft | 437 kts | 305° |
| 2026-05-04 23:41 | -29.99745 | 142.84117 | 38260 ft | 437 kts | 305° |
| 2026-05-04 23:41 | -29.96198 | 142.78422 | 38261 ft | 437 kts | 305° |
| 2026-05-04 23:42 | -29.92650 | 142.72731 | 38259 ft | 438 kts | 305° |
| 2026-05-04 23:42 | -29.89082 | 142.67015 | 38265 ft | 439 kts | 305° |
| 2026-05-04 23:43 | -29.85518 | 142.61322 | 38269 ft | 438 kts | 305° |
| 2026-05-04 23:43 | -29.81947 | 142.55620 | 38263 ft | 439 kts | 305° |
| 2026-05-04 23:44 | -29.78372 | 142.49921 | 38272 ft | 439 kts | 305° |
| 2026-05-04 23:44 | -29.74793 | 142.44221 | 38263 ft | 440 kts | 305° |
| 2026-05-04 23:45 | -29.71200 | 142.38510 | 38266 ft | 441 kts | 305° |
| 2026-05-04 23:45 | -29.67601 | 142.32796 | 38262 ft | 440 kts | 305° |
| 2026-05-04 23:46 | -29.64013 | 142.27111 | 38267 ft | 439 kts | 305° |
| 2026-05-04 23:46 | -29.60448 | 142.21468 | 38267 ft | 439 kts | 305° |
| 2026-05-04 23:47 | -29.56854 | 142.15785 | 38270 ft | 440 kts | 305° |
| 2026-05-04 23:47 | -29.53257 | 142.10105 | 38267 ft | 440 kts | 305° |
| 2026-05-04 23:48 | -29.49658 | 142.04435 | 38267 ft | 440 kts | 305° |
| 2026-05-04 23:48 | -29.46053 | 141.98757 | 38272 ft | 440 kts | 305° |
| 2026-05-04 23:49 | -29.42440 | 141.93077 | 38268 ft | 441 kts | 305° |
| 2026-05-04 23:49 | -29.38820 | 141.87395 | 38268 ft | 441 kts | 305° |
| 2026-05-04 23:50 | -29.35201 | 141.81721 | 38270 ft | 441 kts | 305° |
| 2026-05-04 23:50 | -29.31574 | 141.76046 | 38269 ft | 442 kts | 305° |
| 2026-05-04 23:51 | -29.27940 | 141.70363 | 38266 ft | 442 kts | 305° |
| 2026-05-04 23:51 | -29.24306 | 141.64690 | 38264 ft | 442 kts | 305° |
| 2026-05-04 23:52 | -29.20670 | 141.59022 | 38266 ft | 442 kts | 305° |
| 2026-05-04 23:52 | -29.17641 | 141.54301 | 38263 ft | 441 kts | 306° |
| 2026-05-04 23:53 | -29.14017 | 141.48659 | 38270 ft | 440 kts | 306° |
| 2026-05-04 23:53 | -29.10387 | 141.43022 | 38270 ft | 440 kts | 306° |
| 2026-05-04 23:54 | -29.06749 | 141.37382 | 38267 ft | 440 kts | 306° |
| 2026-05-04 23:54 | -29.03118 | 141.31758 | 38267 ft | 441 kts | 306° |
| 2026-05-04 23:55 | -28.99462 | 141.26103 | 38269 ft | 442 kts | 306° |
| 2026-05-04 23:56 | -28.93972 | 141.17624 | 38273 ft | 443 kts | 306° |
| 2026-05-04 23:56 | -28.90314 | 141.11984 | 38267 ft | 443 kts | 306° |
| 2026-05-04 23:57 | -28.86640 | 141.06328 | 38269 ft | 444 kts | 306° |
| 2026-05-04 23:57 | -28.82962 | 141.00674 | 38272 ft | 444 kts | 306° |
| 2026-05-04 23:58 | -28.79283 | 140.95022 | 38270 ft | 444 kts | 306° |
| 2026-05-04 23:58 | -28.75595 | 140.89369 | 38267 ft | 444 kts | 306° |
| 2026-05-04 23:59 | -28.71907 | 140.83723 | 38252 ft | 445 kts | 306° |
| 2026-05-04 23:59 | -28.68212 | 140.78073 | 38270 ft | 444 kts | 306° |
| 2026-05-05 00:00 | -28.64542 | 140.72469 | 38271 ft | 444 kts | 306° |
| 2026-05-05 00:00 | -28.60828 | 140.66803 | 38271 ft | 444 kts | 306° |
| 2026-05-05 00:01 | -28.57156 | 140.61211 | 38271 ft | 445 kts | 306° |
| 2026-05-05 00:01 | -28.53448 | 140.55568 | 38273 ft | 445 kts | 306° |
| 2026-05-05 00:02 | -28.49739 | 140.49935 | 38276 ft | 446 kts | 306° |
| 2026-05-05 00:02 | -28.46013 | 140.44284 | 38279 ft | 446 kts | 306° |
| 2026-05-05 00:03 | -28.42297 | 140.38653 | 38280 ft | 446 kts | 306° |
| 2026-05-05 00:03 | -28.38576 | 140.33018 | 38276 ft | 446 kts | 306° |
| 2026-05-05 00:04 | -28.34844 | 140.27380 | 38278 ft | 446 kts | 306° |
| 2026-05-05 00:04 | -28.31109 | 140.21745 | 38278 ft | 446 kts | 306° |
| 2026-05-05 00:05 | -28.27381 | 140.16127 | 38279 ft | 446 kts | 306° |
| 2026-05-05 00:05 | -28.23638 | 140.10494 | 38260 ft | 447 kts | 306° |
| 2026-05-05 00:06 | -28.19919 | 140.04905 | 38279 ft | 446 kts | 306° |
| 2026-05-05 00:06 | -28.16182 | 139.99294 | 38278 ft | 446 kts | 306° |
| 2026-05-05 00:07 | -28.12446 | 139.93693 | 38278 ft | 446 kts | 306° |
| 2026-05-05 00:07 | -28.08696 | 139.88079 | 38280 ft | 447 kts | 306° |
| 2026-05-05 00:08 | -28.04950 | 139.82475 | 38279 ft | 447 kts | 306° |
| 2026-05-05 00:08 | -28.01193 | 139.76865 | 38278 ft | 447 kts | 306° |
| 2026-05-05 00:09 | -27.97436 | 139.71263 | 38280 ft | 447 kts | 306° |
| 2026-05-05 00:09 | -27.93674 | 139.65661 | 38275 ft | 448 kts | 306° |
| 2026-05-05 00:10 | -27.89906 | 139.60054 | 38275 ft | 448 kts | 306° |
| 2026-05-05 00:10 | -27.86132 | 139.54447 | 38278 ft | 448 kts | 306° |
| 2026-05-05 00:11 | -27.82360 | 139.48849 | 38279 ft | 448 kts | 306° |
| 2026-05-05 00:11 | -27.78580 | 139.43251 | 38276 ft | 448 kts | 306° |
| 2026-05-05 00:12 | -27.74799 | 139.37656 | 38273 ft | 448 kts | 306° |
| 2026-05-05 00:12 | -27.71044 | 139.32107 | 38281 ft | 447 kts | 306° |
| 2026-05-05 00:13 | -27.67247 | 139.26500 | 38280 ft | 446 kts | 306° |
| 2026-05-05 00:13 | -27.63499 | 139.20976 | 38281 ft | 447 kts | 306° |
| 2026-05-05 00:14 | -27.59719 | 139.15412 | 38280 ft | 447 kts | 306° |
| 2026-05-05 00:14 | -27.55941 | 139.09856 | 38277 ft | 447 kts | 306° |
| 2026-05-05 00:15 | -27.52156 | 139.04294 | 38276 ft | 447 kts | 306° |
| 2026-05-05 00:15 | -27.48372 | 138.98745 | 38276 ft | 447 kts | 306° |
| 2026-05-05 00:16 | -27.44578 | 138.93193 | 38276 ft | 447 kts | 306° |
| 2026-05-05 00:16 | -27.40787 | 138.87642 | 38279 ft | 447 kts | 306° |
| 2026-05-05 00:17 | -27.36990 | 138.82093 | 38282 ft | 448 kts | 306° |
| 2026-05-05 00:17 | -27.33182 | 138.76536 | 38281 ft | 449 kts | 306° |
| 2026-05-05 00:18 | -27.29373 | 138.70983 | 38282 ft | 448 kts | 306° |
| 2026-05-05 00:18 | -27.25562 | 138.65437 | 38278 ft | 447 kts | 306° |
| 2026-05-05 00:19 | -27.21754 | 138.59906 | 38279 ft | 447 kts | 306° |
| 2026-05-05 00:19 | -27.17948 | 138.54381 | 38281 ft | 448 kts | 306° |
| 2026-05-05 00:20 | -27.14133 | 138.48848 | 38281 ft | 448 kts | 306° |
| 2026-05-05 00:20 | -27.10321 | 138.43326 | 38279 ft | 447 kts | 306° |
| 2026-05-05 00:21 | -27.06527 | 138.37842 | 38284 ft | 448 kts | 306° |
| 2026-05-05 00:21 | -27.02678 | 138.32277 | 38284 ft | 449 kts | 306° |
| 2026-05-05 00:22 | -26.98848 | 138.26753 | 38281 ft | 449 kts | 306° |
| 2026-05-05 00:22 | -26.95038 | 138.21271 | 38278 ft | 449 kts | 306° |
| 2026-05-05 00:23 | -26.90552 | 138.16390 | 38283 ft | 454 kts | 321° |
| 2026-05-05 00:23 | -26.85072 | 138.12779 | 38263 ft | 459 kts | 328° |
| 2026-05-05 00:24 | -26.79395 | 138.09485 | 38285 ft | 459 kts | 329° |
| 2026-05-05 00:24 | -26.73715 | 138.06227 | 38281 ft | 459 kts | 328° |
| 2026-05-05 00:25 | -26.68054 | 138.02955 | 38289 ft | 458 kts | 328° |
| 2026-05-05 00:25 | -26.62390 | 137.99664 | 38281 ft | 459 kts | 328° |
| 2026-05-05 00:26 | -26.56718 | 137.96369 | 38272 ft | 460 kts | 328° |
| 2026-05-05 00:26 | -26.51053 | 137.93084 | 38286 ft | 458 kts | 328° |
| 2026-05-05 00:27 | -26.45394 | 137.89804 | 38283 ft | 458 kts | 328° |
| 2026-05-05 00:27 | -26.39733 | 137.86528 | 38285 ft | 458 kts | 328° |
| 2026-05-05 00:28 | -26.34085 | 137.83262 | 38281 ft | 458 kts | 328° |
| 2026-05-05 00:28 | -26.28419 | 137.79991 | 38271 ft | 458 kts | 328° |
| 2026-05-05 00:29 | -26.22754 | 137.76724 | 38282 ft | 458 kts | 328° |
| 2026-05-05 00:29 | -26.17090 | 137.73462 | 38279 ft | 458 kts | 328° |
| 2026-05-05 00:30 | -26.11453 | 137.70218 | 38277 ft | 458 kts | 328° |
| 2026-05-05 00:30 | -26.05789 | 137.66962 | 38280 ft | 458 kts | 328° |
| 2026-05-05 00:31 | -26.00084 | 137.63686 | 38278 ft | 458 kts | 328° |
| 2026-05-05 00:31 | -25.94452 | 137.60456 | 38277 ft | 458 kts | 328° |
| 2026-05-05 00:32 | -25.88790 | 137.57213 | 38278 ft | 459 kts | 328° |
| 2026-05-05 00:32 | -25.83104 | 137.53957 | 38283 ft | 459 kts | 328° |
| 2026-05-05 00:33 | -25.77431 | 137.50714 | 38278 ft | 459 kts | 328° |
| 2026-05-05 00:33 | -25.71742 | 137.47464 | 38279 ft | 459 kts | 328° |
| 2026-05-05 00:34 | -25.66066 | 137.44227 | 38272 ft | 459 kts | 328° |
| 2026-05-05 00:34 | -25.60394 | 137.40995 | 38275 ft | 458 kts | 328° |
| 2026-05-05 00:35 | -25.54719 | 137.37765 | 38277 ft | 458 kts | 328° |
| 2026-05-05 00:35 | -25.49039 | 137.34536 | 38273 ft | 459 kts | 328° |
| 2026-05-05 00:36 | -25.43353 | 137.31305 | 38276 ft | 460 kts | 328° |
| 2026-05-05 00:36 | -25.37657 | 137.28074 | 38271 ft | 459 kts | 328° |
| 2026-05-05 00:37 | -25.31982 | 137.24857 | 38269 ft | 459 kts | 328° |
| 2026-05-05 00:37 | -25.26305 | 137.21640 | 38268 ft | 458 kts | 328° |
| 2026-05-05 00:38 | -25.20633 | 137.18431 | 38268 ft | 458 kts | 328° |
| 2026-05-05 00:38 | -25.14955 | 137.15224 | 38267 ft | 458 kts | 328° |
| 2026-05-05 00:39 | -25.09315 | 137.12040 | 38264 ft | 458 kts | 328° |
| 2026-05-05 00:39 | -25.03654 | 137.08850 | 38268 ft | 457 kts | 328° |
| 2026-05-05 00:40 | -24.97988 | 137.05660 | 38273 ft | 456 kts | 328° |
| 2026-05-05 00:40 | -24.92336 | 137.02479 | 38272 ft | 457 kts | 328° |
| 2026-05-05 00:41 | -24.86669 | 136.99294 | 38264 ft | 457 kts | 328° |
| 2026-05-05 00:41 | -24.81966 | 136.96654 | 38261 ft | 457 kts | 328° |
| 2026-05-05 00:42 | -24.76305 | 136.93476 | 38264 ft | 456 kts | 328° |
| 2026-05-05 00:42 | -24.70652 | 136.90306 | 38265 ft | 456 kts | 328° |
| 2026-05-05 00:43 | -24.64990 | 136.87136 | 38265 ft | 456 kts | 328° |
| 2026-05-05 00:43 | -24.59328 | 136.83972 | 38265 ft | 456 kts | 328° |
| 2026-05-05 00:44 | -24.53664 | 136.80808 | 38257 ft | 456 kts | 328° |
| 2026-05-05 00:44 | -24.48012 | 136.77653 | 38263 ft | 455 kts | 328° |
| 2026-05-05 00:45 | -24.42358 | 136.74502 | 38262 ft | 456 kts | 327° |
| 2026-05-05 00:45 | -24.36706 | 136.71352 | 38263 ft | 457 kts | 327° |
| 2026-05-05 00:46 | -24.31037 | 136.68196 | 38263 ft | 457 kts | 327° |
| 2026-05-05 00:46 | -24.25367 | 136.65045 | 38253 ft | 457 kts | 327° |
| 2026-05-05 00:47 | -24.19708 | 136.61902 | 38261 ft | 455 kts | 327° |
| 2026-05-05 00:47 | -24.14058 | 136.58768 | 38257 ft | 455 kts | 327° |
| 2026-05-05 00:48 | -24.08399 | 136.55631 | 38253 ft | 456 kts | 327° |
| 2026-05-05 00:48 | -24.02738 | 136.52495 | 38255 ft | 457 kts | 327° |
| 2026-05-05 00:49 | -23.97074 | 136.49365 | 38243 ft | 456 kts | 327° |
| 2026-05-05 00:49 | -23.91408 | 136.46236 | 38253 ft | 456 kts | 327° |
| 2026-05-05 00:50 | -23.85742 | 136.43109 | 38259 ft | 456 kts | 327° |
| 2026-05-05 00:50 | -23.80081 | 136.39988 | 38254 ft | 456 kts | 327° |
| 2026-05-05 00:51 | -23.74417 | 136.36867 | 38256 ft | 456 kts | 327° |
| 2026-05-05 00:51 | -23.68748 | 136.33745 | 38245 ft | 457 kts | 327° |
| 2026-05-05 00:52 | -23.63109 | 136.30644 | 38257 ft | 457 kts | 327° |
| 2026-05-05 00:52 | -23.57436 | 136.27530 | 38254 ft | 457 kts | 327° |
| 2026-05-05 00:53 | -23.51757 | 136.24413 | 38255 ft | 457 kts | 327° |
| 2026-05-05 00:53 | -23.46076 | 136.21298 | 38256 ft | 457 kts | 327° |
| 2026-05-05 00:54 | -23.40398 | 136.18188 | 38247 ft | 457 kts | 327° |
| 2026-05-05 00:54 | -23.34722 | 136.15080 | 38255 ft | 457 kts | 327° |
| 2026-05-05 00:55 | -23.29032 | 136.11971 | 38254 ft | 458 kts | 327° |
| 2026-05-05 00:55 | -23.23347 | 136.08869 | 38255 ft | 457 kts | 327° |
| 2026-05-05 00:56 | -23.17647 | 136.05759 | 38251 ft | 458 kts | 327° |
| 2026-05-05 00:56 | -23.11961 | 136.02658 | 38251 ft | 458 kts | 327° |
| 2026-05-05 00:57 | -23.06265 | 135.99557 | 38252 ft | 458 kts | 327° |
| 2026-05-05 00:57 | -23.00577 | 135.96464 | 38242 ft | 458 kts | 327° |
| 2026-05-05 00:58 | -22.94866 | 135.93360 | 38249 ft | 459 kts | 327° |
| 2026-05-05 00:58 | -22.89156 | 135.90259 | 38252 ft | 460 kts | 327° |
| 2026-05-05 00:59 | -22.83472 | 135.87173 | 38219 ft | 460 kts | 327° |
| 2026-05-05 00:59 | -22.77755 | 135.84078 | 38247 ft | 459 kts | 327° |
| 2026-05-05 01:00 | -22.72031 | 135.80986 | 38520 ft | 459 kts | 327° |
| 2026-05-05 01:00 | -22.69180 | 135.79448 | 38786 ft | 457 kts | 327° |
| 2026-05-05 01:00 | -22.66340 | 135.77912 | 38978 ft | 456 kts | 327° |
| 2026-05-05 01:00 | -22.63501 | 135.76377 | 39086 ft | 457 kts | 326° |
| 2026-05-05 01:01 | -22.60653 | 135.74834 | 39146 ft | 458 kts | 327° |
| 2026-05-05 01:01 | -22.57797 | 135.73290 | 39269 ft | 458 kts | 327° |
| 2026-05-05 01:01 | -22.54947 | 135.71752 | 39405 ft | 458 kts | 327° |
| 2026-05-05 01:01 | -22.52099 | 135.70217 | 39539 ft | 457 kts | 326° |
| 2026-05-05 01:02 | -22.49250 | 135.68682 | 39682 ft | 456 kts | 326° |
| 2026-05-05 01:02 | -22.46408 | 135.67151 | 39795 ft | 456 kts | 326° |
| 2026-05-05 01:02 | -22.43576 | 135.65625 | 39927 ft | 456 kts | 326° |
| 2026-05-05 01:02 | -22.40729 | 135.64093 | 40041 ft | 456 kts | 326° |
| 2026-05-05 01:03 | -22.37891 | 135.62567 | 40157 ft | 456 kts | 326° |
| 2026-05-05 01:03 | -22.32210 | 135.59511 | 40239 ft | 458 kts | 326° |
| 2026-05-05 01:04 | -22.26508 | 135.56449 | 40231 ft | 458 kts | 326° |
| 2026-05-05 01:04 | -22.17958 | 135.51863 | 40231 ft | 457 kts | 326° |
| 2026-05-05 01:05 | -22.12257 | 135.48808 | 40229 ft | 457 kts | 326° |
| 2026-05-05 01:05 | -22.06552 | 135.45754 | 40227 ft | 457 kts | 326° |
| 2026-05-05 01:06 | -22.00846 | 135.42701 | 40220 ft | 458 kts | 326° |
| 2026-05-05 01:06 | -21.95144 | 135.39655 | 40214 ft | 457 kts | 326° |
| 2026-05-05 01:07 | -21.89483 | 135.36633 | 40219 ft | 457 kts | 326° |
| 2026-05-05 01:07 | -21.83779 | 135.33590 | 40219 ft | 458 kts | 326° |
| 2026-05-05 01:08 | -21.78074 | 135.30548 | 40214 ft | 458 kts | 326° |
| 2026-05-05 01:08 | -21.72364 | 135.27508 | 40214 ft | 458 kts | 326° |
| 2026-05-05 01:09 | -21.66649 | 135.24468 | 40210 ft | 458 kts | 326° |
| 2026-05-05 01:09 | -21.60951 | 135.21439 | 40210 ft | 457 kts | 326° |
| 2026-05-05 01:10 | -21.55250 | 135.18411 | 40208 ft | 457 kts | 326° |
| 2026-05-05 01:10 | -21.49551 | 135.15387 | 40209 ft | 457 kts | 326° |
| 2026-05-05 01:11 | -21.43845 | 135.12362 | 40206 ft | 457 kts | 326° |
| 2026-05-05 01:11 | -21.38145 | 135.09341 | 40192 ft | 457 kts | 325° |
| 2026-05-05 01:12 | -21.32440 | 135.06329 | 40201 ft | 456 kts | 325° |
| 2026-05-05 01:12 | -21.26742 | 135.03324 | 40202 ft | 456 kts | 325° |
| 2026-05-05 01:13 | -21.21050 | 135.00322 | 40197 ft | 456 kts | 325° |
| 2026-05-05 01:13 | -21.15382 | 134.97334 | 40195 ft | 458 kts | 325° |
| 2026-05-05 01:14 | -21.09660 | 134.94320 | 40190 ft | 459 kts | 325° |
| 2026-05-05 01:14 | -21.03932 | 134.91308 | 40190 ft | 459 kts | 325° |
| 2026-05-05 01:15 | -20.98207 | 134.88299 | 40193 ft | 458 kts | 325° |
| 2026-05-05 01:15 | -20.92481 | 134.85292 | 40173 ft | 458 kts | 325° |
| 2026-05-05 01:16 | -20.86761 | 134.82291 | 40185 ft | 458 kts | 325° |
| 2026-05-05 01:16 | -20.81047 | 134.79295 | 40186 ft | 458 kts | 325° |
| 2026-05-05 01:17 | -20.75333 | 134.76301 | 40182 ft | 458 kts | 325° |
| 2026-05-05 01:17 | -20.69611 | 134.73306 | 40170 ft | 458 kts | 325° |
| 2026-05-05 01:18 | -20.63896 | 134.70317 | 40176 ft | 457 kts | 325° |
| 2026-05-05 01:18 | -20.58177 | 134.67328 | 40181 ft | 457 kts | 325° |
| 2026-05-05 01:19 | -20.52462 | 134.64344 | 40177 ft | 457 kts | 325° |
| 2026-05-05 01:19 | -20.46745 | 134.61362 | 40183 ft | 457 kts | 324° |
| 2026-05-05 01:20 | -20.41019 | 134.58378 | 40173 ft | 458 kts | 324° |
| 2026-05-05 01:20 | -20.35294 | 134.55395 | 40175 ft | 459 kts | 324° |
| 2026-05-05 01:21 | -20.29555 | 134.52410 | 40169 ft | 459 kts | 324° |
| 2026-05-05 01:21 | -20.23820 | 134.49428 | 40164 ft | 459 kts | 324° |
| 2026-05-05 01:22 | -20.18115 | 134.46464 | 40165 ft | 459 kts | 324° |
| 2026-05-05 01:22 | -20.12381 | 134.43488 | 40141 ft | 459 kts | 324° |
| 2026-05-05 01:23 | -20.06603 | 134.40491 | 40162 ft | 459 kts | 324° |
| 2026-05-05 01:23 | -20.00862 | 134.37516 | 40162 ft | 459 kts | 324° |
| 2026-05-05 01:24 | -19.95186 | 134.34576 | 40156 ft | 459 kts | 324° |
| 2026-05-05 01:24 | -19.89442 | 134.31605 | 40152 ft | 460 kts | 324° |
| 2026-05-05 01:25 | -19.83697 | 134.28635 | 40153 ft | 460 kts | 324° |
| 2026-05-05 01:25 | -19.77941 | 134.25662 | 40157 ft | 460 kts | 324° |
| 2026-05-05 01:26 | -19.72193 | 134.22696 | 40154 ft | 460 kts | 324° |
| 2026-05-05 01:26 | -19.66434 | 134.19725 | 40151 ft | 460 kts | 325° |
| 2026-05-05 01:27 | -19.60470 | 134.17103 | 40148 ft | 468 kts | 330° |
| 2026-05-05 01:27 | -19.54305 | 134.14815 | 40149 ft | 469 kts | 332° |
| 2026-05-05 01:28 | -19.48130 | 134.12579 | 40128 ft | 469 kts | 332° |
| 2026-05-05 01:28 | -19.41940 | 134.10334 | 40147 ft | 470 kts | 332° |
| 2026-05-05 01:29 | -19.36800 | 134.08465 | 40147 ft | 470 kts | 332° |
| 2026-05-05 01:29 | -19.30616 | 134.06213 | 40143 ft | 470 kts | 332° |
| 2026-05-05 01:30 | -19.24427 | 134.03960 | 40141 ft | 470 kts | 332° |
| 2026-05-05 01:30 | -19.18244 | 134.01711 | 40137 ft | 471 kts | 332° |
| 2026-05-05 01:31 | -19.12045 | 133.99459 | 40137 ft | 471 kts | 332° |
| 2026-05-05 01:31 | -19.05847 | 133.97210 | 40132 ft | 471 kts | 332° |
| 2026-05-05 01:32 | -18.99655 | 133.94963 | 40134 ft | 471 kts | 332° |
| 2026-05-05 01:32 | -18.93443 | 133.92712 | 40133 ft | 471 kts | 332° |
| 2026-05-05 01:33 | -18.87285 | 133.90482 | 40128 ft | 471 kts | 332° |
| 2026-05-05 01:33 | -18.81084 | 133.88238 | 40130 ft | 471 kts | 333° |
| 2026-05-05 01:34 | -18.74882 | 133.85995 | 40120 ft | 471 kts | 333° |
| 2026-05-05 01:34 | -18.68676 | 133.83753 | 40122 ft | 471 kts | 333° |
| 2026-05-05 01:35 | -18.62476 | 133.81515 | 40132 ft | 471 kts | 333° |
| 2026-05-05 01:35 | -18.56260 | 133.79272 | 40114 ft | 472 kts | 333° |
| 2026-05-05 01:36 | -18.50057 | 133.77036 | 40117 ft | 471 kts | 333° |
| 2026-05-05 01:36 | -18.43848 | 133.74800 | 40118 ft | 471 kts | 333° |
| 2026-05-05 01:37 | -18.37643 | 133.72567 | 40116 ft | 471 kts | 333° |
| 2026-05-05 01:37 | -18.31439 | 133.70336 | 40114 ft | 471 kts | 333° |
| 2026-05-05 01:38 | -18.25233 | 133.68105 | 40109 ft | 471 kts | 333° |
| 2026-05-05 01:38 | -18.19021 | 133.65875 | 40117 ft | 471 kts | 333° |
| 2026-05-05 01:39 | -18.12812 | 133.63646 | 40104 ft | 471 kts | 333° |
| 2026-05-05 01:39 | -18.06610 | 133.61423 | 40109 ft | 471 kts | 333° |
| 2026-05-05 01:40 | -18.00407 | 133.59200 | 40111 ft | 471 kts | 333° |
| 2026-05-05 01:40 | -17.94191 | 133.56975 | 40105 ft | 471 kts | 333° |
| 2026-05-05 01:41 | -17.87993 | 133.54757 | 40101 ft | 471 kts | 333° |
| 2026-05-05 01:41 | -17.81792 | 133.52540 | 40104 ft | 471 kts | 333° |
| 2026-05-05 01:42 | -17.75588 | 133.50324 | 40099 ft | 471 kts | 333° |
| 2026-05-05 01:42 | -17.69384 | 133.48109 | 40078 ft | 471 kts | 334° |
| 2026-05-05 01:43 | -17.63176 | 133.45895 | 40110 ft | 470 kts | 334° |
| 2026-05-05 01:43 | -17.56981 | 133.43687 | 40092 ft | 470 kts | 334° |
| 2026-05-05 01:44 | -17.50782 | 133.41480 | 40095 ft | 471 kts | 333° |
| 2026-05-05 01:44 | -17.44620 | 133.39285 | 40097 ft | 471 kts | 334° |
| 2026-05-05 01:45 | -17.38421 | 133.37080 | 40083 ft | 471 kts | 334° |
| 2026-05-05 01:45 | -17.32218 | 133.34876 | 40095 ft | 471 kts | 334° |
| 2026-05-05 01:46 | -17.26029 | 133.32678 | 40077 ft | 471 kts | 334° |
| 2026-05-05 01:46 | -17.19829 | 133.30477 | 40086 ft | 471 kts | 334° |
| 2026-05-05 01:47 | -17.13630 | 133.28278 | 40083 ft | 471 kts | 334° |
| 2026-05-05 01:47 | -17.07416 | 133.26076 | 40083 ft | 471 kts | 334° |
| 2026-05-05 01:48 | -17.01217 | 133.23881 | 40057 ft | 471 kts | 334° |
| 2026-05-05 01:48 | -16.94997 | 133.21679 | 40080 ft | 472 kts | 334° |
| 2026-05-05 01:49 | -16.88775 | 133.19480 | 40074 ft | 472 kts | 334° |
| 2026-05-05 01:49 | -16.82556 | 133.17291 | 40074 ft | 472 kts | 334° |
| 2026-05-05 01:50 | -16.76332 | 133.15101 | 40058 ft | 472 kts | 334° |
| 2026-05-05 01:50 | -16.70088 | 133.12905 | 40069 ft | 473 kts | 334° |
| 2026-05-05 01:51 | -16.63856 | 133.10716 | 40066 ft | 473 kts | 334° |
| 2026-05-05 01:51 | -16.57621 | 133.08527 | 40064 ft | 473 kts | 334° |
| 2026-05-05 01:52 | -16.51418 | 133.06351 | 40061 ft | 473 kts | 334° |
| 2026-05-05 01:52 | -16.45164 | 133.04157 | 40059 ft | 474 kts | 335° |
| 2026-05-05 01:53 | -16.38920 | 133.01970 | 40059 ft | 474 kts | 334° |
| 2026-05-05 01:53 | -16.32659 | 132.99777 | 40056 ft | 475 kts | 334° |
| 2026-05-05 01:54 | -16.26405 | 132.97589 | 40047 ft | 475 kts | 335° |
| 2026-05-05 01:54 | -16.20131 | 132.95395 | 40048 ft | 475 kts | 335° |
| 2026-05-05 01:55 | -16.13864 | 132.93205 | 40047 ft | 475 kts | 335° |
| 2026-05-05 01:55 | -16.07587 | 132.91014 | 40045 ft | 475 kts | 335° |
| 2026-05-05 01:56 | -16.01315 | 132.88825 | 40040 ft | 475 kts | 335° |
| 2026-05-05 01:56 | -15.95055 | 132.86642 | 40039 ft | 475 kts | 335° |
| 2026-05-05 01:57 | -15.88815 | 132.84467 | 40037 ft | 475 kts | 335° |
| 2026-05-05 01:57 | -15.82508 | 132.82270 | 40023 ft | 475 kts | 335° |
| 2026-05-05 01:58 | -15.76265 | 132.80097 | 40034 ft | 476 kts | 335° |
| 2026-05-05 01:58 | -15.69994 | 132.77916 | 40031 ft | 476 kts | 335° |
| 2026-05-05 01:59 | -15.63717 | 132.75734 | 40024 ft | 476 kts | 335° |
| 2026-05-05 01:59 | -15.57437 | 132.73552 | 40017 ft | 476 kts | 335° |
| 2026-05-05 02:00 | -15.51145 | 132.71368 | 40021 ft | 476 kts | 335° |
| 2026-05-05 02:00 | -15.44863 | 132.69189 | 40020 ft | 477 kts | 335° |
| 2026-05-05 02:01 | -15.38577 | 132.67010 | 40021 ft | 477 kts | 335° |
| 2026-05-05 02:01 | -15.32285 | 132.64829 | 40018 ft | 477 kts | 335° |
| 2026-05-05 02:02 | -15.25983 | 132.62647 | 40020 ft | 477 kts | 335° |
| 2026-05-05 02:02 | -15.19693 | 132.60471 | 40020 ft | 477 kts | 335° |
| 2026-05-05 02:03 | -15.13441 | 132.58309 | 40010 ft | 478 kts | 335° |
| 2026-05-05 02:03 | -15.07134 | 132.56128 | 40008 ft | 478 kts | 335° |
| 2026-05-05 02:04 | -15.00783 | 132.53935 | 40007 ft | 478 kts | 335° |
| 2026-05-05 02:04 | -14.94528 | 132.51776 | 40006 ft | 478 kts | 335° |
| 2026-05-05 02:05 | -14.88220 | 132.49600 | 40007 ft | 478 kts | 335° |
| 2026-05-05 02:05 | -14.81910 | 132.47424 | 40002 ft | 478 kts | 336° |
| 2026-05-05 02:06 | -14.75611 | 132.45254 | 40008 ft | 477 kts | 336° |
| 2026-05-05 02:06 | -14.69306 | 132.43083 | 40014 ft | 477 kts | 336° |
| 2026-05-05 02:07 | -14.63001 | 132.40914 | 40018 ft | 478 kts | 336° |
| 2026-05-05 02:07 | -14.56698 | 132.38746 | 40013 ft | 478 kts | 336° |
| 2026-05-05 02:08 | -14.50645 | 132.36078 | 40014 ft | 469 kts | 323° |
| 2026-05-05 02:08 | -14.45199 | 132.32420 | 40018 ft | 466 kts | 320° |
| 2026-05-05 02:09 | -14.39852 | 132.28627 | 40017 ft | 466 kts | 320° |
| 2026-05-05 02:09 | -14.34536 | 132.24843 | 40006 ft | 467 kts | 320° |
| 2026-05-05 02:10 | -14.29165 | 132.21044 | 39995 ft | 468 kts | 321° |
| 2026-05-05 02:10 | -14.23794 | 132.17259 | 39982 ft | 468 kts | 320° |
| 2026-05-05 02:11 | -14.18424 | 132.13479 | 39976 ft | 468 kts | 320° |
| 2026-05-05 02:11 | -14.13043 | 132.09692 | 39969 ft | 468 kts | 321° |
| 2026-05-05 02:12 | -14.04968 | 132.04011 | 39973 ft | 469 kts | 321° |
| 2026-05-05 02:13 | -13.99610 | 132.00246 | 39973 ft | 469 kts | 321° |
| 2026-05-05 02:13 | -13.94218 | 131.96459 | 39973 ft | 469 kts | 321° |
| 2026-05-05 02:14 | -13.88831 | 131.92677 | 39966 ft | 470 kts | 321° |
| 2026-05-05 02:14 | -13.83419 | 131.88879 | 39973 ft | 470 kts | 321° |
| 2026-05-05 02:15 | -13.78020 | 131.85092 | 39973 ft | 470 kts | 321° |
| 2026-05-05 02:15 | -13.72610 | 131.81302 | 39968 ft | 470 kts | 321° |
| 2026-05-05 02:16 | -13.67197 | 131.77511 | 39967 ft | 470 kts | 321° |
| 2026-05-05 02:16 | -13.61778 | 131.73717 | 39963 ft | 471 kts | 321° |
| 2026-05-05 02:17 | -13.56372 | 131.69937 | 39965 ft | 471 kts | 321° |
| 2026-05-05 02:17 | -13.50956 | 131.66149 | 39962 ft | 471 kts | 321° |
| 2026-05-05 02:18 | -13.45540 | 131.62363 | 39963 ft | 471 kts | 321° |
| 2026-05-05 02:18 | -13.40123 | 131.58578 | 39962 ft | 472 kts | 321° |
| 2026-05-05 02:19 | -13.34694 | 131.54789 | 39961 ft | 472 kts | 321° |
| 2026-05-05 02:19 | -13.30176 | 131.51637 | 39956 ft | 472 kts | 321° |
| 2026-05-05 02:20 | -13.24743 | 131.47850 | 39953 ft | 472 kts | 321° |
| 2026-05-05 02:20 | -13.19313 | 131.44064 | 39946 ft | 472 kts | 322° |
| 2026-05-05 02:21 | -13.13861 | 131.40266 | 39958 ft | 474 kts | 322° |
| 2026-05-05 02:21 | -13.08399 | 131.36469 | 39955 ft | 475 kts | 322° |
| 2026-05-05 02:22 | -13.02927 | 131.32668 | 39947 ft | 474 kts | 322° |
| 2026-05-05 02:22 | -12.97470 | 131.28870 | 39943 ft | 474 kts | 322° |
| 2026-05-05 02:23 | -12.92017 | 131.25078 | 39952 ft | 476 kts | 322° |
| 2026-05-05 02:23 | -12.86527 | 131.21266 | 39949 ft | 477 kts | 322° |
| 2026-05-05 02:24 | -12.81031 | 131.17453 | 39949 ft | 477 kts | 322° |
| 2026-05-05 02:24 | -12.75578 | 131.13671 | 39943 ft | 476 kts | 322° |
| 2026-05-05 02:25 | -12.70086 | 131.09865 | 39942 ft | 477 kts | 322° |
| 2026-05-05 02:25 | -12.64582 | 131.06051 | 39952 ft | 478 kts | 322° |
| 2026-05-05 02:26 | -12.59070 | 131.02234 | 39956 ft | 479 kts | 322° |
| 2026-05-05 02:26 | -12.53553 | 130.98416 | 39960 ft | 478 kts | 322° |
| 2026-05-05 02:27 | -12.48037 | 130.94601 | 39963 ft | 478 kts | 323° |
| 2026-05-05 02:27 | -12.42622 | 130.90650 | 39972 ft | 476 kts | 316° |
| 2026-05-05 02:28 | -12.37967 | 130.85882 | 39966 ft | 473 kts | 310° |
| 2026-05-05 02:28 | -12.33487 | 130.80939 | 39965 ft | 473 kts | 309° |
| 2026-05-05 02:29 | -12.29036 | 130.75988 | 39959 ft | 473 kts | 310° |
| 2026-05-05 02:29 | -12.24567 | 130.71039 | 39948 ft | 473 kts | 310° |
| 2026-05-05 02:30 | -12.20084 | 130.66091 | 39949 ft | 475 kts | 310° |
| 2026-05-05 02:30 | -12.15580 | 130.61128 | 39946 ft | 476 kts | 310° |
| 2026-05-05 02:31 | -12.11081 | 130.56172 | 39946 ft | 476 kts | 310° |
| 2026-05-05 02:31 | -12.06583 | 130.51219 | 39945 ft | 476 kts | 310° |
| 2026-05-05 02:32 | -12.02111 | 130.46297 | 39937 ft | 476 kts | 310° |
| 2026-05-05 02:32 | -11.97610 | 130.41345 | 39946 ft | 477 kts | 310° |
| 2026-05-05 02:33 | -11.93063 | 130.36345 | 39940 ft | 477 kts | 310° |
| 2026-05-05 02:33 | -11.88583 | 130.31422 | 39939 ft | 477 kts | 310° |
| 2026-05-05 02:34 | -11.84065 | 130.26460 | 39938 ft | 477 kts | 310° |
| 2026-05-05 02:34 | -11.79552 | 130.21506 | 39936 ft | 477 kts | 310° |
| 2026-05-05 02:35 | -11.75024 | 130.16537 | 39936 ft | 478 kts | 310° |
| 2026-05-05 02:35 | -11.70501 | 130.11576 | 39937 ft | 478 kts | 310° |
| 2026-05-05 02:36 | -11.65963 | 130.06603 | 39938 ft | 478 kts | 310° |
| 2026-05-05 02:36 | -11.61430 | 130.01638 | 39937 ft | 478 kts | 310° |
| 2026-05-05 02:37 | -11.56901 | 129.96679 | 39935 ft | 478 kts | 310° |
| 2026-05-05 02:37 | -11.52372 | 129.91748 | 39933 ft | 479 kts | 312° |
| 2026-05-05 02:38 | -11.47315 | 129.87275 | 39935 ft | 482 kts | 318° |
| 2026-05-05 02:38 | -11.42100 | 129.82966 | 39935 ft | 483 kts | 319° |
| 2026-05-05 02:39 | -11.36860 | 129.78673 | 39941 ft | 483 kts | 318° |
| 2026-05-05 02:39 | -11.31635 | 129.74383 | 39938 ft | 482 kts | 318° |
| 2026-05-05 02:40 | -11.26422 | 129.70095 | 39938 ft | 482 kts | 318° |
| 2026-05-05 02:40 | -11.21207 | 129.65804 | 39938 ft | 482 kts | 318° |
| 2026-05-05 02:41 | -11.15988 | 129.61512 | 39939 ft | 482 kts | 318° |
| 2026-05-05 02:41 | -11.10770 | 129.57225 | 39939 ft | 482 kts | 318° |
| 2026-05-05 02:42 | -11.05597 | 129.52976 | 39936 ft | 481 kts | 318° |
| 2026-05-05 02:42 | -11.00378 | 129.48691 | 39939 ft | 482 kts | 319° |
| 2026-05-05 02:43 | -10.95145 | 129.44396 | 39934 ft | 483 kts | 319° |
| 2026-05-05 02:43 | -10.89915 | 129.40107 | 39935 ft | 483 kts | 319° |
| 2026-05-05 02:44 | -10.84690 | 129.35824 | 39941 ft | 483 kts | 319° |
| 2026-05-05 02:44 | -10.79449 | 129.31529 | 39927 ft | 482 kts | 319° |
| 2026-05-05 02:45 | -10.74216 | 129.27242 | 39934 ft | 484 kts | 319° |
| 2026-05-05 02:45 | -10.68964 | 129.22943 | 39935 ft | 485 kts | 319° |
| 2026-05-05 02:46 | -10.63699 | 129.18635 | 39932 ft | 485 kts | 319° |
| 2026-05-05 02:46 | -10.58448 | 129.14330 | 39929 ft | 485 kts | 318° |
| 2026-05-05 02:47 | -10.53490 | 129.09707 | 39929 ft | 483 kts | 314° |
| 2026-05-05 02:47 | -10.48666 | 129.04940 | 39933 ft | 484 kts | 314° |
| 2026-05-05 02:48 | -10.43782 | 129.00210 | 39927 ft | 485 kts | 315° |
| 2026-05-05 02:48 | -10.38866 | 128.95530 | 39927 ft | 485 kts | 314° |
| 2026-05-05 02:49 | -10.33923 | 128.90847 | 39928 ft | 485 kts | 315° |
| 2026-05-05 02:49 | -10.28996 | 128.86178 | 39924 ft | 485 kts | 315° |
| 2026-05-05 02:50 | -10.24063 | 128.81503 | 39927 ft | 485 kts | 315° |
| 2026-05-05 02:50 | -10.19122 | 128.76823 | 39928 ft | 486 kts | 314° |
| 2026-05-05 02:51 | -10.14181 | 128.72142 | 39927 ft | 486 kts | 314° |
| 2026-05-05 02:51 | -10.09250 | 128.67472 | 39927 ft | 485 kts | 315° |
| 2026-05-05 02:52 | -10.04337 | 128.62825 | 39924 ft | 485 kts | 315° |
| 2026-05-05 02:52 | -9.99400 | 128.58156 | 39945 ft | 485 kts | 315° |
| 2026-05-05 02:53 | -9.94425 | 128.53454 | 39931 ft | 485 kts | 315° |
| 2026-05-05 02:53 | -9.89493 | 128.48793 | 39920 ft | 485 kts | 315° |
| 2026-05-05 02:54 | -9.84580 | 128.44151 | 39924 ft | 485 kts | 315° |
| 2026-05-05 02:54 | -9.79637 | 128.39483 | 39926 ft | 486 kts | 315° |
| 2026-05-05 02:55 | -9.74696 | 128.34818 | 39931 ft | 485 kts | 316° |
| 2026-05-05 02:55 | -9.69763 | 128.30165 | 39914 ft | 485 kts | 316° |
| 2026-05-05 02:56 | -9.64818 | 128.25503 | 39917 ft | 485 kts | 315° |
| 2026-05-05 02:56 | -9.59888 | 128.20854 | 39936 ft | 484 kts | 315° |
| 2026-05-05 02:57 | -9.54954 | 128.16205 | 39937 ft | 485 kts | 315° |
| 2026-05-05 02:57 | -9.50010 | 128.11550 | 39915 ft | 484 kts | 316° |
| 2026-05-05 02:58 | -9.45086 | 128.06915 | 39916 ft | 484 kts | 316° |
| 2026-05-05 02:58 | -9.40145 | 128.02267 | 39928 ft | 484 kts | 315° |
| 2026-05-05 02:59 | -9.35221 | 127.97633 | 39932 ft | 483 kts | 316° |
| 2026-05-05 02:59 | -9.30284 | 127.92988 | 39929 ft | 484 kts | 315° |
| 2026-05-05 03:00 | -9.25360 | 127.88360 | 39910 ft | 483 kts | 315° |
| 2026-05-05 03:00 | -9.20433 | 127.83729 | 39913 ft | 484 kts | 316° |
| 2026-05-05 03:01 | -9.15485 | 127.79083 | 39928 ft | 485 kts | 316° |
| 2026-05-05 03:01 | -9.10577 | 127.74477 | 39928 ft | 484 kts | 316° |
| 2026-05-05 03:02 | -9.05625 | 127.69860 | 39908 ft | 485 kts | 316° |
| 2026-05-05 03:02 | -9.00629 | 127.65273 | 39908 ft | 484 kts | 316° |
| 2026-05-05 03:03 | -8.95648 | 127.60703 | 39928 ft | 484 kts | 317° |
| 2026-05-05 03:03 | -8.90656 | 127.56118 | 39929 ft | 485 kts | 317° |
| 2026-05-05 03:04 | -8.85664 | 127.51531 | 39928 ft | 485 kts | 316° |
| 2026-05-05 03:04 | -8.80671 | 127.46944 | 39910 ft | 485 kts | 317° |
| 2026-05-05 03:05 | -8.75675 | 127.42355 | 39926 ft | 485 kts | 316° |
| 2026-05-05 03:05 | -8.70690 | 127.37779 | 39928 ft | 485 kts | 316° |
| 2026-05-05 03:06 | -8.65692 | 127.33193 | 39930 ft | 485 kts | 316° |
| 2026-05-05 03:06 | -8.60694 | 127.28608 | 39915 ft | 485 kts | 316° |
| 2026-05-05 03:07 | -8.55734 | 127.24059 | 39925 ft | 485 kts | 316° |
| 2026-05-05 03:07 | -8.50745 | 127.19486 | 39926 ft | 485 kts | 317° |
| 2026-05-05 03:08 | -8.45749 | 127.14909 | 39924 ft | 485 kts | 317° |
| 2026-05-05 03:08 | -8.40746 | 127.10326 | 39928 ft | 485 kts | 316° |
| 2026-05-05 03:09 | -8.36556 | 127.06489 | 39926 ft | 485 kts | 316° |
| 2026-05-05 03:09 | -8.31595 | 127.01947 | 39928 ft | 485 kts | 316° |
| 2026-05-05 03:10 | -8.26597 | 126.97374 | 39912 ft | 485 kts | 317° |
| 2026-05-05 03:10 | -8.21595 | 126.92799 | 39901 ft | 485 kts | 316° |
| 2026-05-05 03:11 | -8.16596 | 126.88228 | 39913 ft | 484 kts | 317° |
| 2026-05-05 03:11 | -8.11595 | 126.83657 | 39893 ft | 485 kts | 317° |
| 2026-05-05 03:12 | -8.06601 | 126.79093 | 39894 ft | 485 kts | 316° |
| 2026-05-05 03:12 | -8.01602 | 126.74528 | 39920 ft | 485 kts | 317° |
| 2026-05-05 03:13 | -7.96587 | 126.69970 | 39918 ft | 485 kts | 316° |
| 2026-05-05 03:13 | -7.91570 | 126.65415 | 39896 ft | 485 kts | 317° |
| 2026-05-05 03:14 | -7.86558 | 126.60862 | 39918 ft | 485 kts | 317° |
| 2026-05-05 03:14 | -7.81552 | 126.56314 | 39917 ft | 485 kts | 317° |
| 2026-05-05 03:15 | -7.76533 | 126.51756 | 39912 ft | 485 kts | 317° |
| 2026-05-05 03:15 | -7.71558 | 126.47238 | 39915 ft | 485 kts | 317° |
| 2026-05-05 03:16 | -7.66546 | 126.42690 | 39912 ft | 485 kts | 317° |
| 2026-05-05 03:16 | -7.61533 | 126.38141 | 39914 ft | 484 kts | 317° |
| 2026-05-05 03:17 | -7.56524 | 126.33599 | 39904 ft | 484 kts | 317° |
| 2026-05-05 03:17 | -7.51510 | 126.29054 | 39901 ft | 484 kts | 317° |
| 2026-05-05 03:18 | -7.46505 | 126.24517 | 39895 ft | 485 kts | 317° |
| 2026-05-05 03:18 | -7.41490 | 126.19973 | 39886 ft | 486 kts | 317° |
| 2026-05-05 03:19 | -7.33946 | 126.13140 | 39874 ft | 486 kts | 317° |
| 2026-05-05 03:19 | -7.28929 | 126.08598 | 39891 ft | 484 kts | 317° |
| 2026-05-05 03:20 | -7.23931 | 126.04074 | 39893 ft | 483 kts | 317° |
| 2026-05-05 03:20 | -7.18923 | 125.99543 | 39893 ft | 484 kts | 317° |
| 2026-05-05 03:21 | -7.13918 | 125.95016 | 39892 ft | 484 kts | 317° |
| 2026-05-05 03:21 | -7.08923 | 125.90499 | 39893 ft | 483 kts | 317° |
| 2026-05-05 03:22 | -7.03913 | 125.85970 | 39891 ft | 484 kts | 317° |
| 2026-05-05 03:22 | -6.98909 | 125.81447 | 39889 ft | 483 kts | 317° |
| 2026-05-05 03:23 | -6.93907 | 125.76928 | 39892 ft | 483 kts | 317° |
| 2026-05-05 03:23 | -6.88914 | 125.72419 | 39890 ft | 483 kts | 317° |
| 2026-05-05 03:24 | -6.83909 | 125.67902 | 39889 ft | 483 kts | 317° |
| 2026-05-05 03:24 | -6.78918 | 125.63396 | 39888 ft | 483 kts | 317° |
| 2026-05-05 03:25 | -6.73915 | 125.58881 | 39890 ft | 484 kts | 317° |
| 2026-05-05 03:25 | -6.68929 | 125.54383 | 39889 ft | 484 kts | 317° |
| 2026-05-05 03:26 | -6.63926 | 125.49871 | 39886 ft | 484 kts | 317° |
| 2026-05-05 03:26 | -6.58904 | 125.45344 | 39886 ft | 484 kts | 317° |
| 2026-05-05 03:27 | -6.53893 | 125.40828 | 39887 ft | 484 kts | 317° |
| 2026-05-05 03:27 | -6.48884 | 125.36314 | 39887 ft | 484 kts | 317° |
| 2026-05-05 03:28 | -6.43868 | 125.31794 | 39885 ft | 485 kts | 317° |
| 2026-05-05 03:28 | -6.38845 | 125.27270 | 39885 ft | 484 kts | 317° |
| 2026-05-05 03:29 | -6.33815 | 125.22742 | 39889 ft | 485 kts | 317° |
| 2026-05-05 03:29 | -6.28788 | 125.18218 | 39889 ft | 485 kts | 317° |
| 2026-05-05 03:30 | -6.23770 | 125.13703 | 39887 ft | 484 kts | 317° |
| 2026-05-05 03:30 | -6.18751 | 125.09187 | 39887 ft | 485 kts | 317° |
| 2026-05-05 03:31 | -6.13713 | 125.04657 | 39886 ft | 486 kts | 317° |
| 2026-05-05 03:31 | -6.08716 | 125.00164 | 39886 ft | 485 kts | 317° |
| 2026-05-05 03:32 | -6.03687 | 124.95642 | 39888 ft | 485 kts | 317° |
| 2026-05-05 03:32 | -5.98615 | 124.91085 | 39888 ft | 485 kts | 317° |
| 2026-05-05 03:33 | -5.93584 | 124.86565 | 39887 ft | 485 kts | 317° |
| 2026-05-05 03:33 | -5.88595 | 124.82084 | 39890 ft | 485 kts | 317° |
| 2026-05-05 03:34 | -5.83559 | 124.77561 | 39887 ft | 485 kts | 317° |
| 2026-05-05 03:34 | -5.78532 | 124.73049 | 39890 ft | 485 kts | 317° |
| 2026-05-05 03:35 | -5.73504 | 124.68536 | 39893 ft | 485 kts | 317° |
| 2026-05-05 03:35 | -5.68474 | 124.64023 | 39893 ft | 485 kts | 317° |
| 2026-05-05 03:36 | -5.63437 | 124.59505 | 39880 ft | 485 kts | 317° |
| 2026-05-05 03:36 | -5.58408 | 124.54995 | 39888 ft | 485 kts | 317° |
| 2026-05-05 03:37 | -5.53372 | 124.50480 | 39891 ft | 485 kts | 317° |
| 2026-05-05 03:37 | -5.48352 | 124.45980 | 39889 ft | 484 kts | 317° |
| 2026-05-05 03:38 | -5.43326 | 124.41477 | 39890 ft | 484 kts | 317° |
| 2026-05-05 03:38 | -5.38290 | 124.36963 | 39890 ft | 485 kts | 317° |
| 2026-05-05 03:39 | -5.33294 | 124.32486 | 39888 ft | 484 kts | 317° |
| 2026-05-05 03:39 | -5.28236 | 124.27956 | 39890 ft | 486 kts | 317° |
| 2026-05-05 03:40 | -5.23187 | 124.23436 | 39886 ft | 486 kts | 317° |
| 2026-05-05 03:40 | -5.18137 | 124.18916 | 39888 ft | 485 kts | 317° |
| 2026-05-05 03:41 | -5.13108 | 124.14414 | 39890 ft | 485 kts | 317° |
| 2026-05-05 03:41 | -5.08099 | 124.09931 | 39893 ft | 486 kts | 317° |
| 2026-05-05 03:42 | -5.03052 | 124.05414 | 39886 ft | 486 kts | 318° |
| 2026-05-05 03:42 | -4.97994 | 124.00891 | 39887 ft | 489 kts | 318° |
| 2026-05-05 03:43 | -4.92903 | 123.96324 | 39889 ft | 491 kts | 317° |
| 2026-05-05 03:43 | -4.87846 | 123.91738 | 39891 ft | 489 kts | 317° |
| 2026-05-05 03:44 | -4.82820 | 123.87165 | 39894 ft | 489 kts | 317° |
| 2026-05-05 03:44 | -4.77767 | 123.82591 | 39889 ft | 488 kts | 317° |
| 2026-05-05 03:45 | -4.72722 | 123.78045 | 39896 ft | 489 kts | 318° |
| 2026-05-05 03:45 | -4.67636 | 123.73473 | 39887 ft | 494 kts | 318° |
| 2026-05-05 03:46 | -4.62507 | 123.68857 | 39888 ft | 493 kts | 317° |
| 2026-05-05 03:46 | -4.57428 | 123.64251 | 39895 ft | 492 kts | 317° |
| 2026-05-05 03:47 | -4.52346 | 123.59649 | 39895 ft | 492 kts | 317° |
| 2026-05-05 03:47 | -4.47280 | 123.55072 | 39893 ft | 491 kts | 317° |
| 2026-05-05 03:48 | -4.42195 | 123.50481 | 39887 ft | 494 kts | 318° |
| 2026-05-05 03:48 | -4.37057 | 123.45859 | 39893 ft | 497 kts | 318° |
| 2026-05-05 03:49 | -4.31930 | 123.41222 | 39894 ft | 497 kts | 318° |
| 2026-05-05 03:49 | -4.26798 | 123.36590 | 39893 ft | 495 kts | 318° |
| 2026-05-05 03:50 | -4.21705 | 123.32018 | 39898 ft | 496 kts | 318° |
| 2026-05-05 03:50 | -4.16577 | 123.27398 | 39893 ft | 497 kts | 318° |
| 2026-05-05 03:51 | -4.11454 | 123.22756 | 39893 ft | 495 kts | 318° |
| 2026-05-05 03:51 | -4.06336 | 123.18155 | 39889 ft | 495 kts | 318° |
| 2026-05-05 03:52 | -4.01218 | 123.13534 | 39895 ft | 496 kts | 318° |
| 2026-05-05 03:52 | -3.96059 | 123.08892 | 39889 ft | 499 kts | 318° |
| 2026-05-05 03:53 | -3.90903 | 123.04264 | 39895 ft | 498 kts | 318° |
| 2026-05-05 03:53 | -3.85744 | 122.99623 | 39894 ft | 499 kts | 318° |
| 2026-05-05 03:54 | -3.80583 | 122.94968 | 39891 ft | 499 kts | 317° |
| 2026-05-05 03:54 | -3.75432 | 122.90318 | 39890 ft | 498 kts | 317° |
| 2026-05-05 03:55 | -3.70288 | 122.85683 | 39893 ft | 498 kts | 318° |
| 2026-05-05 03:55 | -3.65126 | 122.81038 | 39890 ft | 498 kts | 318° |
| 2026-05-05 03:56 | -3.60831 | 122.77178 | 39894 ft | 500 kts | 318° |
| 2026-05-05 03:56 | -3.55677 | 122.72546 | 39894 ft | 498 kts | 318° |
| 2026-05-05 03:57 | -3.50526 | 122.67906 | 39890 ft | 498 kts | 318° |
| 2026-05-05 03:57 | -3.45365 | 122.63262 | 39891 ft | 499 kts | 318° |
| 2026-05-05 03:58 | -3.40212 | 122.58629 | 39894 ft | 497 kts | 318° |
| 2026-05-05 03:58 | -3.35082 | 122.54014 | 39896 ft | 496 kts | 318° |
| 2026-05-05 03:59 | -3.29955 | 122.49403 | 39898 ft | 496 kts | 318° |
| 2026-05-05 03:59 | -3.24860 | 122.44823 | 39897 ft | 495 kts | 318° |
| 2026-05-05 04:00 | -3.19702 | 122.40187 | 39892 ft | 495 kts | 318° |
| 2026-05-05 04:00 | -3.14577 | 122.35581 | 39894 ft | 496 kts | 318° |
| 2026-05-05 04:01 | -3.09474 | 122.30994 | 39896 ft | 496 kts | 319° |
| 2026-05-05 04:01 | -3.04306 | 122.26351 | 39899 ft | 496 kts | 318° |
| 2026-05-05 04:02 | -2.99205 | 122.21769 | 39897 ft | 496 kts | 319° |
| 2026-05-05 04:02 | -2.94055 | 122.17144 | 39905 ft | 498 kts | 318° |
| 2026-05-05 04:03 | -2.88895 | 122.12511 | 39905 ft | 498 kts | 318° |
| 2026-05-05 04:03 | -2.83765 | 122.07903 | 39902 ft | 496 kts | 318° |
| 2026-05-05 04:04 | -2.78627 | 122.03290 | 39906 ft | 495 kts | 319° |
| 2026-05-05 04:04 | -2.73497 | 121.98683 | 39906 ft | 496 kts | 319° |
| 2026-05-05 04:05 | -2.68378 | 121.94087 | 39910 ft | 494 kts | 319° |
| 2026-05-05 04:05 | -2.63267 | 121.89497 | 39909 ft | 494 kts | 319° |
| 2026-05-05 04:06 | -2.58144 | 121.84900 | 39899 ft | 495 kts | 319° |
| 2026-05-05 04:06 | -2.53018 | 121.80303 | 39907 ft | 495 kts | 319° |
| 2026-05-05 04:07 | -2.47902 | 121.75713 | 39905 ft | 493 kts | 318° |
| 2026-05-05 04:07 | -2.42827 | 121.71160 | 39906 ft | 493 kts | 319° |
| 2026-05-05 04:08 | -2.37687 | 121.66550 | 39907 ft | 493 kts | 318° |
| 2026-05-05 04:08 | -2.32621 | 121.62006 | 39899 ft | 493 kts | 318° |
| 2026-05-05 04:09 | -2.27522 | 121.57432 | 39897 ft | 492 kts | 319° |
| 2026-05-05 04:09 | -2.22417 | 121.52854 | 39897 ft | 492 kts | 319° |
| 2026-05-05 04:10 | -2.17319 | 121.48284 | 39897 ft | 492 kts | 319° |
| 2026-05-05 04:10 | -2.12228 | 121.43718 | 39897 ft | 491 kts | 319° |
| 2026-05-05 04:11 | -2.07136 | 121.39153 | 39905 ft | 491 kts | 319° |
| 2026-05-05 04:11 | -2.02049 | 121.34593 | 39904 ft | 491 kts | 319° |
| 2026-05-05 04:12 | -1.96961 | 121.30033 | 39899 ft | 491 kts | 319° |
| 2026-05-05 04:12 | -1.91869 | 121.25469 | 39918 ft | 491 kts | 319° |
| 2026-05-05 04:13 | -1.86781 | 121.20908 | 39911 ft | 492 kts | 319° |
| 2026-05-05 04:13 | -1.81678 | 121.16335 | 39929 ft | 493 kts | 319° |
| 2026-05-05 04:14 | -1.76605 | 121.11789 | 39929 ft | 493 kts | 319° |
| 2026-05-05 04:14 | -1.71507 | 121.07222 | 39930 ft | 492 kts | 319° |
| 2026-05-05 04:15 | -1.66410 | 121.02656 | 39928 ft | 492 kts | 319° |
| 2026-05-05 04:15 | -1.61305 | 120.98082 | 39928 ft | 493 kts | 319° |
| 2026-05-05 04:16 | -1.56187 | 120.93498 | 39921 ft | 496 kts | 318° |
| 2026-05-05 04:16 | -1.51032 | 120.88880 | 39921 ft | 498 kts | 318° |
| 2026-05-05 04:17 | -1.45869 | 120.84254 | 39925 ft | 499 kts | 318° |
| 2026-05-05 04:17 | -1.40694 | 120.79621 | 39906 ft | 500 kts | 318° |
| 2026-05-05 04:18 | -1.35521 | 120.74988 | 39900 ft | 499 kts | 318° |
| 2026-05-05 04:18 | -1.30353 | 120.70359 | 39902 ft | 498 kts | 318° |
| 2026-05-05 04:19 | -1.25194 | 120.65745 | 39894 ft | 497 kts | 318° |
| 2026-05-05 04:19 | -1.20044 | 120.61125 | 39902 ft | 498 kts | 318° |
| 2026-05-05 04:20 | -1.14895 | 120.56504 | 39894 ft | 498 kts | 318° |
| 2026-05-05 04:20 | -1.09745 | 120.51896 | 39893 ft | 497 kts | 318° |
| 2026-05-05 04:21 | -1.04592 | 120.47293 | 39886 ft | 497 kts | 318° |
| 2026-05-05 04:21 | -0.99438 | 120.42688 | 39886 ft | 497 kts | 318° |
| 2026-05-05 04:22 | -0.94286 | 120.38077 | 39898 ft | 498 kts | 318° |
| 2026-05-05 04:22 | -0.89141 | 120.33469 | 39884 ft | 496 kts | 318° |
| 2026-05-05 04:23 | -0.84005 | 120.28868 | 39881 ft | 495 kts | 318° |
| 2026-05-05 04:23 | -0.78901 | 120.24297 | 39884 ft | 496 kts | 318° |
| 2026-05-05 04:24 | -0.73724 | 120.19663 | 39882 ft | 497 kts | 318° |
| 2026-05-05 04:25 | -0.66003 | 120.12770 | 39880 ft | 496 kts | 318° |
| 2026-05-05 04:25 | -0.60860 | 120.08158 | 39883 ft | 498 kts | 318° |
| 2026-05-05 04:26 | -0.55698 | 120.03541 | 39890 ft | 499 kts | 318° |
| 2026-05-05 04:26 | -0.50578 | 119.98951 | 39887 ft | 497 kts | 317° |
| 2026-05-05 04:27 | -0.45402 | 119.94308 | 39888 ft | 497 kts | 318° |
| 2026-05-05 04:27 | -0.40290 | 119.89735 | 39886 ft | 496 kts | 318° |
| 2026-05-05 04:28 | -0.35145 | 119.85129 | 39887 ft | 497 kts | 318° |
| 2026-05-05 04:28 | -0.29996 | 119.80517 | 39887 ft | 496 kts | 318° |
| 2026-05-05 04:29 | -0.24854 | 119.75930 | 39883 ft | 494 kts | 319° |
| 2026-05-05 04:29 | -0.19728 | 119.71348 | 39885 ft | 494 kts | 318° |
| 2026-05-05 04:30 | -0.14605 | 119.66756 | 39878 ft | 495 kts | 319° |
| 2026-05-05 04:30 | -0.09476 | 119.62167 | 39878 ft | 495 kts | 319° |
| 2026-05-05 04:31 | -0.04347 | 119.57574 | 39877 ft | 495 kts | 319° |
| 2026-05-05 04:31 | 0.00777 | 119.52988 | 39874 ft | 495 kts | 319° |
| 2026-05-05 04:32 | 0.05919 | 119.48370 | 39871 ft | 498 kts | 318° |
| 2026-05-05 04:32 | 0.11031 | 119.43675 | 39873 ft | 500 kts | 317° |
| 2026-05-05 04:33 | 0.16139 | 119.38970 | 39873 ft | 500 kts | 318° |
| 2026-05-05 04:33 | 0.21262 | 119.34267 | 39874 ft | 500 kts | 318° |
| 2026-05-05 04:34 | 0.26380 | 119.29578 | 39872 ft | 499 kts | 318° |
| 2026-05-05 04:34 | 0.31494 | 119.24896 | 39873 ft | 499 kts | 318° |
| 2026-05-05 04:35 | 0.36580 | 119.20237 | 39870 ft | 498 kts | 318° |
| 2026-05-05 04:35 | 0.41681 | 119.15565 | 39869 ft | 497 kts | 318° |
| 2026-05-05 04:36 | 0.46767 | 119.10906 | 39867 ft | 497 kts | 318° |
| 2026-05-05 04:36 | 0.51877 | 119.06225 | 39871 ft | 497 kts | 318° |
| 2026-05-05 04:37 | 0.56969 | 119.01560 | 39870 ft | 497 kts | 318° |
| 2026-05-05 04:37 | 0.62068 | 118.96889 | 39870 ft | 497 kts | 318° |
| 2026-05-05 04:38 | 0.67169 | 118.92215 | 39865 ft | 498 kts | 318° |
| 2026-05-05 04:38 | 0.72280 | 118.87534 | 39870 ft | 501 kts | 317° |
| 2026-05-05 04:39 | 0.77435 | 118.82811 | 39869 ft | 503 kts | 317° |
| 2026-05-05 04:39 | 0.82592 | 118.78086 | 39870 ft | 503 kts | 317° |
| 2026-05-05 04:40 | 0.87740 | 118.73370 | 39870 ft | 503 kts | 317° |
| 2026-05-05 04:40 | 0.92902 | 118.68640 | 39871 ft | 503 kts | 317° |
| 2026-05-05 04:41 | 0.98051 | 118.63921 | 39865 ft | 503 kts | 318° |
| 2026-05-05 04:41 | 1.03176 | 118.59226 | 39864 ft | 503 kts | 317° |
| 2026-05-05 04:42 | 1.08334 | 118.54499 | 39864 ft | 503 kts | 317° |
| 2026-05-05 04:42 | 1.13515 | 118.49751 | 39865 ft | 503 kts | 317° |
| 2026-05-05 04:43 | 1.18669 | 118.45027 | 39865 ft | 503 kts | 317° |
| 2026-05-05 04:43 | 1.23800 | 118.40324 | 39864 ft | 503 kts | 317° |
| 2026-05-05 04:44 | 1.28951 | 118.35603 | 39863 ft | 503 kts | 318° |
| 2026-05-05 04:44 | 1.34104 | 118.30879 | 39862 ft | 502 kts | 318° |
| 2026-05-05 04:45 | 1.39247 | 118.26165 | 39859 ft | 501 kts | 318° |
| 2026-05-05 04:45 | 1.44388 | 118.21452 | 39862 ft | 501 kts | 318° |
| 2026-05-05 04:46 | 1.49526 | 118.16742 | 39864 ft | 501 kts | 318° |
| 2026-05-05 04:46 | 1.53792 | 118.12830 | 39862 ft | 501 kts | 318° |
| 2026-05-05 04:47 | 1.58925 | 118.08124 | 39862 ft | 501 kts | 318° |
| 2026-05-05 04:47 | 1.64062 | 118.03413 | 39861 ft | 498 kts | 317° |
| 2026-05-05 04:48 | 1.69145 | 117.98751 | 39861 ft | 496 kts | 318° |
| 2026-05-05 04:48 | 1.74226 | 117.94092 | 39863 ft | 495 kts | 318° |
| 2026-05-05 04:49 | 1.79303 | 117.89435 | 39862 ft | 495 kts | 318° |
| 2026-05-05 04:49 | 1.84386 | 117.84774 | 39862 ft | 495 kts | 318° |
| 2026-05-05 04:50 | 1.89453 | 117.80125 | 39858 ft | 495 kts | 318° |
| 2026-05-05 04:50 | 1.94500 | 117.75494 | 39858 ft | 495 kts | 318° |
| 2026-05-05 04:51 | 1.99608 | 117.70808 | 39860 ft | 495 kts | 318° |
| 2026-05-05 04:51 | 2.04642 | 117.66189 | 39856 ft | 495 kts | 318° |
| 2026-05-05 04:52 | 2.09730 | 117.61521 | 39856 ft | 496 kts | 318° |
| 2026-05-05 04:52 | 2.14806 | 117.56862 | 39856 ft | 496 kts | 318° |
| 2026-05-05 04:53 | 2.19883 | 117.52202 | 39851 ft | 496 kts | 318° |
| 2026-05-05 04:53 | 2.24962 | 117.47540 | 39855 ft | 496 kts | 318° |
| 2026-05-05 04:54 | 2.30034 | 117.42884 | 39855 ft | 495 kts | 318° |
| 2026-05-05 04:54 | 2.35115 | 117.38219 | 39856 ft | 495 kts | 318° |
| 2026-05-05 04:55 | 2.40185 | 117.33564 | 39858 ft | 495 kts | 318° |
| 2026-05-05 04:55 | 2.45257 | 117.28906 | 39855 ft | 495 kts | 318° |
| 2026-05-05 04:56 | 2.50328 | 117.24249 | 39857 ft | 495 kts | 318° |
| 2026-05-05 04:56 | 2.55392 | 117.19598 | 39854 ft | 495 kts | 318° |
| 2026-05-05 04:57 | 2.60467 | 117.14936 | 39857 ft | 494 kts | 318° |
| 2026-05-05 04:57 | 2.65522 | 117.10292 | 39855 ft | 494 kts | 318° |
| 2026-05-05 04:58 | 2.70578 | 117.05647 | 39858 ft | 493 kts | 318° |
| 2026-05-05 04:58 | 2.75638 | 117.00997 | 39857 ft | 493 kts | 318° |
| 2026-05-05 04:59 | 2.80654 | 116.96388 | 39860 ft | 493 kts | 318° |
| 2026-05-05 04:59 | 2.85708 | 116.91742 | 39860 ft | 493 kts | 318° |
| 2026-05-05 05:00 | 2.90728 | 116.87128 | 39854 ft | 493 kts | 318° |
| 2026-05-05 05:00 | 2.95778 | 116.82484 | 39865 ft | 493 kts | 318° |
| 2026-05-05 05:01 | 3.00829 | 116.77840 | 39863 ft | 492 kts | 318° |
| 2026-05-05 05:01 | 3.05862 | 116.73212 | 39863 ft | 492 kts | 318° |
| 2026-05-05 05:02 | 3.10908 | 116.68572 | 39865 ft | 493 kts | 318° |
| 2026-05-05 05:02 | 3.15958 | 116.63927 | 39865 ft | 493 kts | 318° |
| 2026-05-05 05:03 | 3.21008 | 116.59281 | 39871 ft | 493 kts | 318° |
| 2026-05-05 05:03 | 3.26060 | 116.54632 | 39868 ft | 493 kts | 318° |
| 2026-05-05 05:04 | 3.31101 | 116.49993 | 39875 ft | 491 kts | 318° |
| 2026-05-05 05:04 | 3.36095 | 116.45397 | 39876 ft | 491 kts | 318° |
| 2026-05-05 05:05 | 3.41154 | 116.40740 | 39875 ft | 491 kts | 318° |
| 2026-05-05 05:05 | 3.46144 | 116.36146 | 39889 ft | 491 kts | 318° |
| 2026-05-05 05:06 | 3.51166 | 116.31523 | 39888 ft | 490 kts | 318° |
| 2026-05-05 05:06 | 3.56189 | 116.26897 | 39887 ft | 490 kts | 318° |
| 2026-05-05 05:07 | 3.61209 | 116.22272 | 39894 ft | 490 kts | 318° |
| 2026-05-05 05:07 | 3.66222 | 116.17654 | 39897 ft | 490 kts | 318° |
| 2026-05-05 05:08 | 3.71245 | 116.13027 | 39910 ft | 491 kts | 318° |
| 2026-05-05 05:08 | 3.76270 | 116.08396 | 39910 ft | 491 kts | 318° |
| 2026-05-05 05:09 | 3.81290 | 116.03768 | 39908 ft | 490 kts | 318° |
| 2026-05-05 05:09 | 3.86322 | 115.99139 | 39917 ft | 493 kts | 318° |
| 2026-05-05 05:10 | 3.91363 | 115.94514 | 39915 ft | 492 kts | 318° |
| 2026-05-05 05:10 | 3.96377 | 115.89880 | 39919 ft | 494 kts | 318° |
| 2026-05-05 05:11 | 4.01440 | 115.85219 | 39929 ft | 493 kts | 318° |
| 2026-05-05 05:11 | 4.06488 | 115.80568 | 39925 ft | 493 kts | 318° |
| 2026-05-05 05:12 | 4.11215 | 115.75538 | 39934 ft | 497 kts | 312° |
| 2026-05-05 05:12 | 4.15711 | 115.70363 | 39931 ft | 494 kts | 311° |
| 2026-05-05 05:13 | 4.20190 | 115.65143 | 39935 ft | 495 kts | 311° |
| 2026-05-05 05:13 | 4.24657 | 115.59904 | 39932 ft | 496 kts | 311° |
| 2026-05-05 05:14 | 4.29174 | 115.54636 | 39922 ft | 500 kts | 311° |
| 2026-05-05 05:14 | 4.33714 | 115.49383 | 39915 ft | 498 kts | 311° |
| 2026-05-05 05:15 | 4.38306 | 115.44192 | 39914 ft | 498 kts | 312° |
| 2026-05-05 05:15 | 4.42910 | 115.39016 | 39899 ft | 498 kts | 312° |
| 2026-05-05 05:16 | 4.47518 | 115.33816 | 39899 ft | 498 kts | 312° |
| 2026-05-05 05:16 | 4.52112 | 115.28619 | 39898 ft | 498 kts | 312° |
| 2026-05-05 05:17 | 4.56695 | 115.23430 | 39875 ft | 498 kts | 312° |
| 2026-05-05 05:17 | 4.61287 | 115.18232 | 39879 ft | 498 kts | 312° |
| 2026-05-05 05:18 | 4.65875 | 115.13037 | 39871 ft | 498 kts | 312° |
| 2026-05-05 05:18 | 4.70474 | 115.07829 | 39871 ft | 498 kts | 312° |
| 2026-05-05 05:19 | 4.75054 | 115.02640 | 39871 ft | 498 kts | 312° |
| 2026-05-05 05:19 | 4.79649 | 114.97434 | 39869 ft | 498 kts | 312° |
| 2026-05-05 05:20 | 4.84231 | 114.92242 | 39871 ft | 497 kts | 312° |
| 2026-05-05 05:20 | 4.88646 | 114.86907 | 39863 ft | 496 kts | 307° |
| 2026-05-05 05:21 | 4.92726 | 114.81339 | 39884 ft | 496 kts | 306° |
| 2026-05-05 05:21 | 4.96772 | 114.75732 | 39881 ft | 496 kts | 306° |
| 2026-05-05 05:22 | 5.00811 | 114.70130 | 39874 ft | 496 kts | 306° |
| 2026-05-05 05:22 | 5.04853 | 114.64533 | 39870 ft | 496 kts | 306° |
| 2026-05-05 05:23 | 5.08909 | 114.58921 | 39868 ft | 496 kts | 306° |
| 2026-05-05 05:23 | 5.12924 | 114.53363 | 39866 ft | 496 kts | 306° |
| 2026-05-05 05:24 | 5.17000 | 114.47722 | 39861 ft | 496 kts | 306° |
| 2026-05-05 05:24 | 5.21040 | 114.42127 | 39861 ft | 496 kts | 306° |
| 2026-05-05 05:25 | 5.25057 | 114.36563 | 39862 ft | 494 kts | 306° |
| 2026-05-05 05:25 | 5.29083 | 114.30985 | 39863 ft | 493 kts | 306° |
| 2026-05-05 05:26 | 5.33101 | 114.25416 | 39854 ft | 493 kts | 306° |
| 2026-05-05 05:26 | 5.37129 | 114.19834 | 39854 ft | 494 kts | 306° |
| 2026-05-05 05:27 | 5.41160 | 114.14244 | 39850 ft | 494 kts | 306° |
| 2026-05-05 05:27 | 5.47198 | 114.05876 | 39855 ft | 493 kts | 306° |
| 2026-05-05 05:28 | 5.51218 | 114.00299 | 39852 ft | 493 kts | 306° |
| 2026-05-05 05:28 | 5.55244 | 113.94715 | 39850 ft | 493 kts | 306° |
| 2026-05-05 05:29 | 5.59262 | 113.89141 | 39851 ft | 493 kts | 307° |
| 2026-05-05 05:29 | 5.63270 | 113.83579 | 39854 ft | 492 kts | 307° |
| 2026-05-05 05:30 | 5.67284 | 113.78007 | 39853 ft | 492 kts | 307° |
| 2026-05-05 05:30 | 5.71291 | 113.72442 | 39852 ft | 492 kts | 307° |
| 2026-05-05 05:31 | 5.75271 | 113.66915 | 39854 ft | 491 kts | 307° |
| 2026-05-05 05:31 | 5.79300 | 113.61319 | 39853 ft | 491 kts | 307° |
| 2026-05-05 05:32 | 5.83270 | 113.55801 | 39853 ft | 491 kts | 307° |
| 2026-05-05 05:32 | 5.87264 | 113.50249 | 39857 ft | 491 kts | 307° |
| 2026-05-05 05:33 | 5.91259 | 113.44695 | 39855 ft | 491 kts | 307° |
| 2026-05-05 05:33 | 5.95254 | 113.39139 | 39853 ft | 490 kts | 307° |
| 2026-05-05 05:34 | 5.99239 | 113.33597 | 39854 ft | 490 kts | 307° |
| 2026-05-05 05:34 | 6.03248 | 113.28046 | 39855 ft | 490 kts | 307° |
| 2026-05-05 05:35 | 6.07239 | 113.22512 | 39854 ft | 490 kts | 307° |
| 2026-05-05 05:35 | 6.10563 | 113.17902 | 39854 ft | 490 kts | 307° |
| 2026-05-05 05:36 | 6.14553 | 113.12368 | 39853 ft | 490 kts | 307° |
| 2026-05-05 05:36 | 6.18553 | 113.06818 | 39850 ft | 490 kts | 307° |
| 2026-05-05 05:37 | 6.22550 | 113.01271 | 39850 ft | 490 kts | 307° |
| 2026-05-05 05:37 | 6.26546 | 112.95725 | 39854 ft | 490 kts | 307° |
| 2026-05-05 05:38 | 6.30544 | 112.90173 | 39855 ft | 490 kts | 307° |
| 2026-05-05 05:38 | 6.34541 | 112.84620 | 39853 ft | 490 kts | 307° |
| 2026-05-05 05:39 | 6.38536 | 112.79070 | 39850 ft | 490 kts | 307° |
| 2026-05-05 05:39 | 6.42527 | 112.73523 | 39853 ft | 490 kts | 307° |
| 2026-05-05 05:40 | 6.46521 | 112.67970 | 39855 ft | 490 kts | 307° |
| 2026-05-05 05:40 | 6.50513 | 112.62420 | 39848 ft | 488 kts | 307° |
| 2026-05-05 05:41 | 6.54491 | 112.56873 | 39856 ft | 489 kts | 307° |
| 2026-05-05 05:41 | 6.58474 | 112.51321 | 39857 ft | 490 kts | 307° |
| 2026-05-05 05:42 | 6.62445 | 112.45773 | 39854 ft | 489 kts | 307° |
| 2026-05-05 05:42 | 6.66410 | 112.40212 | 39856 ft | 490 kts | 307° |
| 2026-05-05 05:43 | 6.70387 | 112.34647 | 39854 ft | 490 kts | 307° |
| 2026-05-05 05:43 | 6.74351 | 112.29112 | 39853 ft | 490 kts | 307° |
| 2026-05-05 05:44 | 6.78331 | 112.23541 | 39854 ft | 490 kts | 307° |
| 2026-05-05 05:44 | 6.82317 | 112.17971 | 39853 ft | 490 kts | 307° |
| 2026-05-05 05:45 | 6.86295 | 112.12406 | 39852 ft | 490 kts | 307° |
| 2026-05-05 05:45 | 6.90270 | 112.06841 | 39854 ft | 490 kts | 307° |
| 2026-05-05 05:46 | 6.94277 | 112.01229 | 39856 ft | 490 kts | 307° |
| 2026-05-05 05:46 | 6.98219 | 111.95704 | 39857 ft | 490 kts | 307° |
| 2026-05-05 05:47 | 7.02196 | 111.90130 | 39857 ft | 490 kts | 307° |
| 2026-05-05 05:47 | 7.06166 | 111.84564 | 39857 ft | 490 kts | 307° |
| 2026-05-05 05:48 | 7.10137 | 111.78995 | 39861 ft | 490 kts | 307° |
| 2026-05-05 05:48 | 7.14112 | 111.73416 | 39860 ft | 490 kts | 307° |
| 2026-05-05 05:49 | 7.18081 | 111.67845 | 39858 ft | 490 kts | 307° |
| 2026-05-05 05:49 | 7.22055 | 111.62266 | 39860 ft | 490 kts | 307° |
| 2026-05-05 05:50 | 7.26025 | 111.56690 | 39859 ft | 490 kts | 307° |
| 2026-05-05 05:50 | 7.29995 | 111.51117 | 39860 ft | 490 kts | 307° |
| 2026-05-05 05:51 | 7.33956 | 111.45543 | 39860 ft | 490 kts | 307° |
| 2026-05-05 05:51 | 7.37925 | 111.39951 | 39850 ft | 490 kts | 307° |
| 2026-05-05 05:52 | 7.41884 | 111.34375 | 39856 ft | 490 kts | 307° |
| 2026-05-05 05:52 | 7.45849 | 111.28791 | 39856 ft | 490 kts | 307° |
| 2026-05-05 05:53 | 7.49806 | 111.23217 | 39856 ft | 490 kts | 307° |
| 2026-05-05 05:53 | 7.53772 | 111.17627 | 39857 ft | 490 kts | 307° |
| 2026-05-05 05:54 | 7.57734 | 111.12040 | 39857 ft | 490 kts | 307° |
| 2026-05-05 05:54 | 7.61693 | 111.06456 | 39856 ft | 490 kts | 307° |
| 2026-05-05 05:55 | 7.65653 | 111.00869 | 39857 ft | 490 kts | 307° |
| 2026-05-05 05:55 | 7.69585 | 110.95319 | 39857 ft | 490 kts | 307° |
| 2026-05-05 05:56 | 7.73547 | 110.89724 | 39854 ft | 490 kts | 307° |
| 2026-05-05 05:56 | 7.77498 | 110.84143 | 39856 ft | 490 kts | 307° |
| 2026-05-05 05:57 | 7.81452 | 110.78555 | 39856 ft | 490 kts | 307° |
| 2026-05-05 05:57 | 7.85412 | 110.72957 | 39857 ft | 491 kts | 307° |
| 2026-05-05 05:58 | 7.89377 | 110.67351 | 39857 ft | 491 kts | 307° |
| 2026-05-05 05:58 | 7.93339 | 110.61746 | 39857 ft | 491 kts | 307° |
| 2026-05-05 05:59 | 7.97308 | 110.56130 | 39856 ft | 491 kts | 307° |
| 2026-05-05 05:59 | 8.01264 | 110.50528 | 39856 ft | 491 kts | 307° |
| 2026-05-05 06:00 | 8.05221 | 110.44924 | 39857 ft | 491 kts | 307° |
| 2026-05-05 06:00 | 8.09158 | 110.39345 | 39858 ft | 490 kts | 307° |
| 2026-05-05 06:01 | 8.13133 | 110.33711 | 39855 ft | 490 kts | 307° |
| 2026-05-05 06:01 | 8.17095 | 110.28095 | 39856 ft | 490 kts | 307° |
| 2026-05-05 06:02 | 8.21016 | 110.22533 | 39857 ft | 489 kts | 307° |
| 2026-05-05 06:02 | 8.24966 | 110.16948 | 39857 ft | 488 kts | 307° |
| 2026-05-05 06:03 | 8.28913 | 110.11380 | 39855 ft | 487 kts | 307° |
| 2026-05-05 06:03 | 8.32842 | 110.05834 | 39860 ft | 486 kts | 307° |
| 2026-05-05 06:04 | 8.36778 | 110.00274 | 39860 ft | 486 kts | 307° |
| 2026-05-05 06:04 | 8.40710 | 109.94716 | 39859 ft | 486 kts | 307° |
| 2026-05-05 06:05 | 8.44640 | 109.89159 | 39860 ft | 486 kts | 307° |
| 2026-05-05 06:05 | 8.48572 | 109.83598 | 39859 ft | 486 kts | 307° |
| 2026-05-05 06:06 | 8.52493 | 109.78050 | 39859 ft | 486 kts | 307° |
| 2026-05-05 06:06 | 8.56413 | 109.72500 | 39860 ft | 485 kts | 307° |
| 2026-05-05 06:07 | 8.60334 | 109.66947 | 39860 ft | 484 kts | 307° |
| 2026-05-05 06:07 | 8.64238 | 109.61417 | 39863 ft | 483 kts | 307° |
| 2026-05-05 06:08 | 8.68138 | 109.55888 | 39863 ft | 484 kts | 307° |
| 2026-05-05 06:08 | 8.72021 | 109.50382 | 39862 ft | 484 kts | 307° |
| 2026-05-05 06:09 | 8.75947 | 109.44814 | 39859 ft | 484 kts | 307° |
| 2026-05-05 06:09 | 8.79851 | 109.39274 | 39863 ft | 484 kts | 307° |
| 2026-05-05 06:10 | 8.83737 | 109.33761 | 39861 ft | 484 kts | 307° |
| 2026-05-05 06:10 | 8.87633 | 109.28213 | 39866 ft | 484 kts | 307° |
| 2026-05-05 06:11 | 8.91546 | 109.22616 | 39862 ft | 484 kts | 307° |
| 2026-05-05 06:11 | 8.95402 | 109.17104 | 39862 ft | 483 kts | 307° |
| 2026-05-05 06:12 | 8.99297 | 109.11541 | 39862 ft | 485 kts | 307° |
| 2026-05-05 06:12 | 9.03197 | 109.05970 | 39865 ft | 485 kts | 307° |
| 2026-05-05 06:13 | 9.07092 | 109.00403 | 39866 ft | 485 kts | 307° |
| 2026-05-05 06:13 | 9.10992 | 108.94827 | 39862 ft | 485 kts | 307° |
| 2026-05-05 06:14 | 9.14885 | 108.89257 | 39864 ft | 485 kts | 307° |
| 2026-05-05 06:14 | 9.18776 | 108.83688 | 39862 ft | 485 kts | 307° |
| 2026-05-05 06:15 | 9.22671 | 108.78112 | 39865 ft | 485 kts | 307° |
| 2026-05-05 06:15 | 9.26564 | 108.72535 | 39866 ft | 485 kts | 307° |
| 2026-05-05 06:16 | 9.30454 | 108.66961 | 39866 ft | 485 kts | 307° |
| 2026-05-05 06:16 | 9.34309 | 108.61435 | 39865 ft | 485 kts | 307° |
| 2026-05-05 06:17 | 9.38191 | 108.55865 | 39864 ft | 484 kts | 307° |
| 2026-05-05 06:17 | 9.42069 | 108.50301 | 39865 ft | 484 kts | 307° |
| 2026-05-05 06:18 | 9.45953 | 108.44726 | 39866 ft | 484 kts | 307° |
| 2026-05-05 06:18 | 9.49969 | 108.39271 | 39871 ft | 483 kts | 309° |
| 2026-05-05 06:19 | 9.52572 | 108.35876 | 39865 ft | 481 kts | 309° |
| 2026-05-05 06:19 | 9.54316 | 108.33590 | 39810 ft | 481 kts | 309° |
| 2026-05-05 06:20 | 9.56337 | 108.30931 | 39573 ft | 481 kts | 309° |
| 2026-05-05 06:20 | 9.58371 | 108.28247 | 39328 ft | 483 kts | 308° |
| 2026-05-05 06:20 | 9.60419 | 108.25540 | 39123 ft | 483 kts | 309° |
| 2026-05-05 06:20 | 9.62464 | 108.22835 | 38885 ft | 483 kts | 309° |
| 2026-05-05 06:21 | 9.64532 | 108.20098 | 38649 ft | 485 kts | 308° |
| 2026-05-05 06:21 | 9.66584 | 108.17380 | 38401 ft | 487 kts | 308° |
| 2026-05-05 06:21 | 9.68618 | 108.14686 | 38135 ft | 487 kts | 309° |
| 2026-05-05 06:21 | 9.70009 | 108.12842 | 37943 ft | 488 kts | 309° |
| 2026-05-05 06:22 | 9.72732 | 108.09231 | 37601 ft | 492 kts | 308° |
| 2026-05-05 06:22 | 9.74738 | 108.06573 | 37350 ft | 497 kts | 308° |
| 2026-05-05 06:22 | 9.76844 | 108.03783 | 37089 ft | 499 kts | 309° |
| 2026-05-05 06:22 | 9.78946 | 108.00991 | 36834 ft | 500 kts | 309° |
| 2026-05-05 06:23 | 9.81067 | 107.98181 | 36579 ft | 501 kts | 308° |
| 2026-05-05 06:23 | 9.83186 | 107.95368 | 36340 ft | 501 kts | 308° |
| 2026-05-05 06:23 | 9.85297 | 107.92565 | 36087 ft | 502 kts | 308° |
| 2026-05-05 06:23 | 9.86728 | 107.90668 | 35923 ft | 502 kts | 308° |
| 2026-05-05 06:24 | 9.88863 | 107.87836 | 35685 ft | 504 kts | 308° |
| 2026-05-05 06:24 | 9.90957 | 107.85053 | 35442 ft | 504 kts | 308° |
| 2026-05-05 06:24 | 9.93085 | 107.82222 | 35205 ft | 504 kts | 308° |
| 2026-05-05 06:24 | 9.95235 | 107.79361 | 34976 ft | 504 kts | 309° |
| 2026-05-05 06:25 | 9.97345 | 107.76558 | 34751 ft | 505 kts | 308° |
| 2026-05-05 06:25 | 9.99496 | 107.73703 | 34075 ft | 504 kts | 309° |
| 2026-05-05 06:25 | 10.01601 | 107.70919 | 33269 ft | 503 kts | 308° |
| 2026-05-05 06:25 | 10.03723 | 107.68102 | 32327 ft | 507 kts | 308° |
| 2026-05-05 06:26 | 10.05863 | 107.65246 | 31384 ft | 509 kts | 308° |
| 2026-05-05 06:26 | 10.08011 | 107.62383 | 30429 ft | 511 kts | 308° |
| 2026-05-05 06:26 | 10.10170 | 107.59507 | 29459 ft | 513 kts | 308° |
| 2026-05-05 06:26 | 10.12156 | 107.56523 | 28783 ft | 507 kts | 298° |
| 2026-05-05 06:27 | 10.13424 | 107.53202 | 28095 ft | 502 kts | 284° |
| 2026-05-05 06:27 | 10.13890 | 107.46207 | 26765 ft | 493 kts | 270° |
| 2026-05-05 06:27 | 10.13895 | 107.42751 | 26091 ft | 490 kts | 270° |
| 2026-05-05 06:28 | 10.13910 | 107.39312 | 25450 ft | 486 kts | 270° |
| 2026-05-05 06:28 | 10.13937 | 107.35907 | 24790 ft | 482 kts | 270° |
| 2026-05-05 06:28 | 10.13970 | 107.32506 | 24144 ft | 478 kts | 270° |
| 2026-05-05 06:28 | 10.14007 | 107.29142 | 23493 ft | 475 kts | 270° |
| 2026-05-05 06:29 | 10.14046 | 107.25797 | 22768 ft | 472 kts | 270° |
| 2026-05-05 06:29 | 10.14085 | 107.22491 | 22089 ft | 466 kts | 270° |
| 2026-05-05 06:29 | 10.14125 | 107.19217 | 21441 ft | 461 kts | 270° |
| 2026-05-05 06:29 | 10.14164 | 107.15988 | 20793 ft | 456 kts | 270° |
| 2026-05-05 06:30 | 10.14203 | 107.12783 | 20132 ft | 452 kts | 270° |
| 2026-05-05 06:30 | 10.14241 | 107.09608 | 19480 ft | 448 kts | 270° |
| 2026-05-05 06:30 | 10.14278 | 107.06474 | 18829 ft | 444 kts | 270° |
| 2026-05-05 06:30 | 10.14316 | 107.03332 | 18159 ft | 442 kts | 270° |
| 2026-05-05 06:31 | 10.14353 | 107.00223 | 17429 ft | 439 kts | 270° |
| 2026-05-05 06:31 | 10.14388 | 106.97148 | 16753 ft | 434 kts | 270° |
| 2026-05-05 06:31 | 10.14423 | 106.94111 | 16083 ft | 429 kts | 270° |
| 2026-05-05 06:31 | 10.14457 | 106.91092 | 15419 ft | 425 kts | 270° |
| 2026-05-05 06:32 | 10.14490 | 106.88104 | 14763 ft | 421 kts | 270° |
| 2026-05-05 06:32 | 10.14523 | 106.85148 | 14097 ft | 418 kts | 271° |
| 2026-05-05 06:32 | 10.14556 | 106.82242 | 13416 ft | 415 kts | 271° |
| 2026-05-05 06:32 | 10.14598 | 106.79305 | 12722 ft | 410 kts | 272° |
| 2026-05-05 06:33 | 10.15023 | 106.76509 | 12086 ft | 404 kts | 288° |
| 2026-05-05 06:33 | 10.16341 | 106.73997 | 11592 ft | 396 kts | 310° |
| 2026-05-05 06:33 | 10.18291 | 106.72089 | 11296 ft | 397 kts | 323° |
| 2026-05-05 06:33 | 10.20487 | 106.70328 | 10956 ft | 396 kts | 324° |
| 2026-05-05 06:34 | 10.22635 | 106.68643 | 10629 ft | 393 kts | 324° |
| 2026-05-05 06:34 | 10.24749 | 106.66974 | 10414 ft | 381 kts | 323° |
| 2026-05-05 06:34 | 10.26802 | 106.65346 | 10195 ft | 365 kts | 324° |
| 2026-05-05 06:34 | 10.28751 | 106.63794 | 9983 ft | 351 kts | 323° |
| 2026-05-05 06:35 | 10.30623 | 106.62304 | 9801 ft | 337 kts | 323° |
| 2026-05-05 06:35 | 10.32437 | 106.60860 | 9643 ft | 323 kts | 323° |
| 2026-05-05 06:35 | 10.34170 | 106.59477 | 9414 ft | 312 kts | 323° |
| 2026-05-05 06:35 | 10.35863 | 106.58126 | 9011 ft | 308 kts | 324° |
| 2026-05-05 06:36 | 10.37536 | 106.56791 | 8538 ft | 307 kts | 324° |
| 2026-05-05 06:36 | 10.39199 | 106.55463 | 8175 ft | 302 kts | 324° |
| 2026-05-05 06:36 | 10.40824 | 106.54166 | 7929 ft | 298 kts | 324° |
| 2026-05-05 06:36 | 10.42445 | 106.52873 | 7668 ft | 296 kts | 324° |
| 2026-05-05 06:37 | 10.44065 | 106.51579 | 7405 ft | 297 kts | 325° |
| 2026-05-05 06:37 | 10.45668 | 106.50250 | 7219 ft | 296 kts | 321° |
| 2026-05-05 06:37 | 10.47409 | 106.49217 | 7163 ft | 284 kts | 342° |
| 2026-05-05 06:37 | 10.49283 | 106.48675 | 6677 ft | 283 kts | 351° |
| 2026-05-05 06:38 | 10.51227 | 106.48285 | 6176 ft | 285 kts | 352° |
| 2026-05-05 06:38 | 10.53174 | 106.47920 | 5801 ft | 282 kts | 351° |
| 2026-05-05 06:38 | 10.55068 | 106.47565 | 5475 ft | 280 kts | 352° |
| 2026-05-05 06:38 | 10.56976 | 106.47209 | 5152 ft | 279 kts | 352° |
| 2026-05-05 06:39 | 10.58907 | 106.46849 | 4819 ft | 277 kts | 352° |
| 2026-05-05 06:39 | 10.60792 | 106.46498 | 4503 ft | 275 kts | 352° |
| 2026-05-05 06:39 | 10.62664 | 106.46151 | 4249 ft | 269 kts | 351° |
| 2026-05-05 06:39 | 10.64438 | 106.45820 | 4122 ft | 256 kts | 351° |
| 2026-05-05 06:40 | 10.66153 | 106.45501 | 3957 ft | 249 kts | 351° |
| 2026-05-05 06:40 | 10.67854 | 106.45321 | 3676 ft | 246 kts | 6° |
| 2026-05-05 06:40 | 10.69491 | 106.45785 | 3405 ft | 243 kts | 27° |
| 2026-05-05 06:40 | 10.70998 | 106.46545 | 3138 ft | 240 kts | 28° |
| 2026-05-05 06:41 | 10.72437 | 106.47293 | 3048 ft | 227 kts | 28° |
| 2026-05-05 06:41 | 10.73808 | 106.48006 | 2969 ft | 213 kts | 28° |
| 2026-05-05 06:41 | 10.75038 | 106.48747 | 2867 ft | 199 kts | 45° |
| 2026-05-05 06:41 | 10.75844 | 106.49806 | 2800 ft | 183 kts | 63° |
| 2026-05-05 06:42 | 10.76337 | 106.50953 | 2712 ft | 172 kts | 70° |
| 2026-05-05 06:42 | 10.76765 | 106.52065 | 2464 ft | 167 kts | 69° |
| 2026-05-05 06:42 | 10.77175 | 106.53144 | 2246 ft | 163 kts | 70° |
| 2026-05-05 06:42 | 10.77560 | 106.54169 | 2029 ft | 154 kts | 70° |
| 2026-05-05 06:43 | 10.77932 | 106.55157 | 1835 ft | 145 kts | 70° |
| 2026-05-05 06:43 | 10.78286 | 106.56093 | 1639 ft | 136 kts | 71° |
| 2026-05-05 06:43 | 10.78618 | 106.56979 | 1484 ft | 133 kts | 72° |
| 2026-05-05 06:43 | 10.78947 | 106.57856 | 1296 ft | 133 kts | 71° |
| 2026-05-05 06:44 | 10.79279 | 106.58737 | 1134 ft | 133 kts | 71° |
| 2026-05-05 06:44 | 10.79610 | 106.59620 | 966 ft | 135 kts | 70° |
| 2026-05-05 06:44 | 10.79943 | 106.60506 | 801 ft | 134 kts | 70° |
| 2026-05-05 06:44 | 10.80270 | 106.61379 | 650 ft | 132 kts | 70° |
| 2026-05-05 06:45 | 10.80591 | 106.62232 | 539 ft | 130 kts | 71° |
| 2026-05-05 06:45 | 10.80936 | 106.63149 | 312 ft | 140 kts | 71° |
| 2026-05-05 06:45 | 10.81267 | 106.64029 | 143 ft | 134 kts | 69° |
| 2026-05-05 06:45 | 10.81575 | 106.64861 | 44 ft | 88 kts | 69° |
| 2026-05-05 06:46 | 10.81680 | 106.65136 | 45 ft | 24 kts | 68° |
| 2026-05-05 06:46 | 10.81735 | 106.65276 | 46 ft | 22 kts | 68° |
| 2026-05-05 06:46 | 10.81791 | 106.65426 | 46 ft | 24 kts | 70° |
| 2026-05-05 06:46 | 10.81791 | 106.65586 | 43 ft | 24 kts | 107° |
| 2026-05-05 06:47 | 10.81723 | 106.65749 | 45 ft | 26 kts | 115° |
| 2026-05-05 06:47 | 10.81693 | 106.65925 | 44 ft | 26 kts | 71° |
| 2026-05-05 06:47 | 10.81757 | 106.66095 | 46 ft | 22 kts | 69° |
| 2026-05-05 06:47 | 10.81751 | 106.66152 | 46 ft | 7 kts | 126° |
| 2026-05-05 06:48 | 10.81705 | 106.66172 | 47 ft | 8 kts | 163° |
| 2026-05-05 06:48 | 10.81699 | 106.66174 | 44 ft | 2 kts | 162° |
| 2026-05-05 06:48 | 10.81690 | 106.66177 | 47 ft | 0 kts | 161° |